THA910 VTBS-EGLL
Flight info
| Callsign | THA910 |
|---|---|
| Flight time | N/A |
| Altitude | 30000 |
| Route | TARED1E TARED P646 JJS B209 KKJ L333 INTIL/N0530F320 L333 MERUN L750 ENRON/N0518F340 L750 RANAH B449 MAMED B450 BIBIM A909 RODAR N644 LEYLA T916 MATAL M11 REBLO UM11 CRM UL746 GOKPA/N0511F360 UL746 ODERO L746 LUGEB DCT PEXAL DCT TIXIP DCT TEGRI DCT ARSIN DCT RENKA DCT INBED DCT BOMBI DCT ADKUV DCT BUB L608 LOGAN |
| Aircraft | B748/H-SDE3FGHIM1M2RWXY/C |
Departure
| Time | N/A |
|---|---|
| Airport | Suvarnabhumi Airport (VTBS) |
Arrival
| Time | 2026-05-07 18:13 |
|---|---|
| Airport | London Heathrow Airport (EGLL) |
| Time | Latitude | Longitude | Altitude | Speed | Heading |
|---|---|---|---|---|---|
| 2026-05-07 10:23 | 29.99187 | 70.73884 | 33700 ft | 495 kts | 320° |
| 2026-05-07 10:23 | 30.04524 | 70.68849 | 33696 ft | 495 kts | 320° |
| 2026-05-07 10:24 | 30.09863 | 70.63812 | 33696 ft | 496 kts | 320° |
| 2026-05-07 10:24 | 30.15157 | 70.58804 | 33697 ft | 494 kts | 320° |
| 2026-05-07 10:25 | 30.20481 | 70.53765 | 33693 ft | 495 kts | 320° |
| 2026-05-07 10:25 | 30.25867 | 70.48723 | 33697 ft | 495 kts | 321° |
| 2026-05-07 10:26 | 30.31269 | 70.43783 | 33696 ft | 495 kts | 321° |
| 2026-05-07 10:26 | 30.36643 | 70.38790 | 33699 ft | 495 kts | 321° |
| 2026-05-07 10:27 | 30.41992 | 70.33851 | 33699 ft | 495 kts | 321° |
| 2026-05-07 10:27 | 30.47361 | 70.28864 | 33705 ft | 495 kts | 321° |
| 2026-05-07 10:28 | 30.52735 | 70.23879 | 33706 ft | 495 kts | 321° |
| 2026-05-07 10:28 | 30.58110 | 70.18879 | 33708 ft | 496 kts | 321° |
| 2026-05-07 10:29 | 30.63492 | 70.13865 | 33708 ft | 496 kts | 321° |
| 2026-05-07 10:29 | 30.68871 | 70.08851 | 33708 ft | 496 kts | 321° |
| 2026-05-07 10:30 | 30.76944 | 70.01307 | 33708 ft | 497 kts | 321° |
| 2026-05-07 10:30 | 30.82325 | 69.96266 | 33711 ft | 497 kts | 321° |
| 2026-05-07 10:31 | 30.87702 | 69.91227 | 33715 ft | 496 kts | 321° |
| 2026-05-07 10:31 | 30.93072 | 69.86185 | 33715 ft | 496 kts | 321° |
| 2026-05-07 10:32 | 30.98453 | 69.81123 | 33718 ft | 497 kts | 321° |
| 2026-05-07 10:32 | 31.03827 | 69.76065 | 33716 ft | 496 kts | 321° |
| 2026-05-07 10:33 | 31.09198 | 69.70995 | 33719 ft | 497 kts | 320° |
| 2026-05-07 10:33 | 31.14282 | 69.66199 | 33739 ft | 496 kts | 321° |
| 2026-05-07 10:34 | 31.19645 | 69.61123 | 33735 ft | 497 kts | 320° |
| 2026-05-07 10:34 | 31.25015 | 69.56035 | 33741 ft | 496 kts | 320° |
| 2026-05-07 10:35 | 31.30375 | 69.50954 | 33746 ft | 496 kts | 320° |
| 2026-05-07 10:35 | 31.35599 | 69.45776 | 33753 ft | 496 kts | 313° |
| 2026-05-07 10:36 | 31.39987 | 69.39532 | 33768 ft | 497 kts | 309° |
| 2026-05-07 10:36 | 31.44278 | 69.33189 | 33759 ft | 497 kts | 309° |
| 2026-05-07 10:37 | 31.48570 | 69.26858 | 33764 ft | 496 kts | 309° |
| 2026-05-07 10:37 | 31.52850 | 69.20513 | 33759 ft | 496 kts | 308° |
| 2026-05-07 10:38 | 31.57138 | 69.14168 | 33759 ft | 496 kts | 308° |
| 2026-05-07 10:38 | 31.61405 | 69.07823 | 33757 ft | 496 kts | 308° |
| 2026-05-07 10:39 | 31.65685 | 69.01464 | 33761 ft | 496 kts | 308° |
| 2026-05-07 10:39 | 31.70101 | 68.95235 | 33758 ft | 496 kts | 310° |
| 2026-05-07 10:40 | 31.74517 | 68.89020 | 33762 ft | 496 kts | 310° |
| 2026-05-07 10:40 | 31.78960 | 68.82816 | 33765 ft | 496 kts | 310° |
| 2026-05-07 10:41 | 31.83385 | 68.76596 | 33768 ft | 496 kts | 310° |
| 2026-05-07 10:41 | 31.87824 | 68.70367 | 33762 ft | 497 kts | 310° |
| 2026-05-07 10:42 | 31.92258 | 68.64122 | 33763 ft | 497 kts | 310° |
| 2026-05-07 10:42 | 31.96690 | 68.57886 | 33788 ft | 497 kts | 310° |
| 2026-05-07 10:43 | 32.01115 | 68.51620 | 33781 ft | 497 kts | 310° |
| 2026-05-07 10:43 | 32.05547 | 68.45362 | 33784 ft | 497 kts | 310° |
| 2026-05-07 10:44 | 32.09943 | 68.39124 | 33785 ft | 498 kts | 310° |
| 2026-05-07 10:44 | 32.14366 | 68.32857 | 33782 ft | 497 kts | 309° |
| 2026-05-07 10:45 | 32.18776 | 68.26576 | 33787 ft | 496 kts | 310° |
| 2026-05-07 10:45 | 32.23186 | 68.20306 | 33786 ft | 496 kts | 309° |
| 2026-05-07 10:46 | 32.27584 | 68.14026 | 33786 ft | 497 kts | 309° |
| 2026-05-07 10:46 | 32.31990 | 68.07739 | 33792 ft | 496 kts | 309° |
| 2026-05-07 10:47 | 32.36385 | 68.01441 | 33791 ft | 497 kts | 309° |
| 2026-05-07 10:47 | 32.40785 | 67.95138 | 33791 ft | 496 kts | 309° |
| 2026-05-07 10:48 | 32.45179 | 67.88824 | 33792 ft | 497 kts | 309° |
| 2026-05-07 10:48 | 32.49574 | 67.82505 | 33792 ft | 497 kts | 309° |
| 2026-05-07 10:49 | 32.54133 | 67.76364 | 33802 ft | 497 kts | 311° |
| 2026-05-07 10:49 | 32.58705 | 67.70223 | 33803 ft | 497 kts | 311° |
| 2026-05-07 10:50 | 32.63292 | 67.64102 | 33803 ft | 496 kts | 311° |
| 2026-05-07 10:50 | 32.67867 | 67.57952 | 33804 ft | 497 kts | 311° |
| 2026-05-07 10:51 | 32.72455 | 67.51796 | 33807 ft | 498 kts | 311° |
| 2026-05-07 10:51 | 32.77036 | 67.45627 | 33810 ft | 498 kts | 311° |
| 2026-05-07 10:52 | 32.81476 | 67.39311 | 33813 ft | 498 kts | 310° |
| 2026-05-07 10:52 | 32.85922 | 67.33003 | 33815 ft | 498 kts | 309° |
| 2026-05-07 10:53 | 32.90341 | 67.26649 | 33818 ft | 498 kts | 310° |
| 2026-05-07 10:53 | 32.94774 | 67.20318 | 33828 ft | 498 kts | 309° |
| 2026-05-07 10:54 | 32.99184 | 67.13968 | 33831 ft | 498 kts | 309° |
| 2026-05-07 10:54 | 33.03610 | 67.07616 | 33832 ft | 498 kts | 309° |
| 2026-05-07 10:55 | 33.08010 | 67.01271 | 33833 ft | 497 kts | 309° |
| 2026-05-07 10:55 | 33.12397 | 66.94946 | 33828 ft | 497 kts | 309° |
| 2026-05-07 10:56 | 33.16796 | 66.88579 | 33823 ft | 497 kts | 309° |
| 2026-05-07 10:56 | 33.21197 | 66.82210 | 33834 ft | 497 kts | 309° |
| 2026-05-07 10:57 | 33.25580 | 66.75853 | 33834 ft | 497 kts | 309° |
| 2026-05-07 10:57 | 33.29981 | 66.69453 | 33837 ft | 497 kts | 309° |
| 2026-05-07 10:58 | 33.34368 | 66.63068 | 33837 ft | 497 kts | 309° |
| 2026-05-07 10:58 | 33.38752 | 66.56675 | 33835 ft | 497 kts | 309° |
| 2026-05-07 10:59 | 33.43131 | 66.50279 | 33837 ft | 497 kts | 309° |
| 2026-05-07 10:59 | 33.47513 | 66.43862 | 33838 ft | 498 kts | 309° |
| 2026-05-07 11:00 | 33.51887 | 66.37411 | 33840 ft | 498 kts | 309° |
| 2026-05-07 11:00 | 33.56258 | 66.30967 | 33839 ft | 498 kts | 309° |
| 2026-05-07 11:01 | 33.60624 | 66.24513 | 33839 ft | 498 kts | 309° |
| 2026-05-07 11:01 | 33.64990 | 66.18049 | 33840 ft | 498 kts | 309° |
| 2026-05-07 11:02 | 33.69345 | 66.11589 | 33847 ft | 498 kts | 309° |
| 2026-05-07 11:02 | 33.73696 | 66.05125 | 33848 ft | 498 kts | 309° |
| 2026-05-07 11:03 | 33.78047 | 65.98649 | 33847 ft | 498 kts | 309° |
| 2026-05-07 11:03 | 33.82390 | 65.92174 | 33847 ft | 498 kts | 309° |
| 2026-05-07 11:04 | 33.86733 | 65.85685 | 33846 ft | 498 kts | 309° |
| 2026-05-07 11:04 | 33.91040 | 65.79240 | 33848 ft | 497 kts | 309° |
| 2026-05-07 11:05 | 33.95374 | 65.72746 | 33845 ft | 497 kts | 309° |
| 2026-05-07 11:05 | 33.99697 | 65.66248 | 33847 ft | 497 kts | 308° |
| 2026-05-07 11:06 | 34.04020 | 65.59746 | 33846 ft | 497 kts | 308° |
| 2026-05-07 11:06 | 34.07645 | 65.54287 | 33859 ft | 497 kts | 308° |
| 2026-05-07 11:07 | 34.12667 | 65.46723 | 33859 ft | 497 kts | 308° |
| 2026-05-07 11:07 | 34.16988 | 65.40204 | 33860 ft | 497 kts | 308° |
| 2026-05-07 11:08 | 34.20574 | 65.34784 | 33860 ft | 497 kts | 308° |
| 2026-05-07 11:08 | 34.24891 | 65.28250 | 33861 ft | 498 kts | 308° |
| 2026-05-07 11:09 | 34.29211 | 65.21697 | 33862 ft | 498 kts | 308° |
| 2026-05-07 11:09 | 34.33534 | 65.15131 | 33863 ft | 499 kts | 308° |
| 2026-05-07 11:10 | 34.37846 | 65.08572 | 33865 ft | 498 kts | 308° |
| 2026-05-07 11:10 | 34.42157 | 65.01992 | 33865 ft | 498 kts | 308° |
| 2026-05-07 11:11 | 34.46458 | 64.95421 | 33865 ft | 498 kts | 308° |
| 2026-05-07 11:11 | 34.50760 | 64.88840 | 33865 ft | 498 kts | 308° |
| 2026-05-07 11:12 | 34.55049 | 64.82243 | 33868 ft | 498 kts | 308° |
| 2026-05-07 11:12 | 34.59340 | 64.75638 | 33868 ft | 498 kts | 308° |
| 2026-05-07 11:13 | 34.63626 | 64.69022 | 33868 ft | 498 kts | 308° |
| 2026-05-07 11:13 | 34.67913 | 64.62400 | 33868 ft | 499 kts | 308° |
| 2026-05-07 11:14 | 34.72191 | 64.55770 | 33868 ft | 498 kts | 308° |
| 2026-05-07 11:14 | 34.76469 | 64.49134 | 33868 ft | 498 kts | 308° |
| 2026-05-07 11:15 | 34.80742 | 64.42493 | 33869 ft | 498 kts | 307° |
| 2026-05-07 11:15 | 34.85011 | 64.35842 | 33871 ft | 499 kts | 307° |
| 2026-05-07 11:16 | 34.89279 | 64.29183 | 33874 ft | 498 kts | 307° |
| 2026-05-07 11:16 | 34.93540 | 64.22522 | 33872 ft | 499 kts | 307° |
| 2026-05-07 11:17 | 34.97800 | 64.15851 | 33871 ft | 499 kts | 307° |
| 2026-05-07 11:17 | 35.02055 | 64.09174 | 33869 ft | 498 kts | 307° |
| 2026-05-07 11:18 | 35.06306 | 64.02490 | 33870 ft | 499 kts | 307° |
| 2026-05-07 11:18 | 35.10552 | 63.95805 | 33868 ft | 498 kts | 307° |
| 2026-05-07 11:19 | 35.14786 | 63.89118 | 33869 ft | 497 kts | 307° |
| 2026-05-07 11:19 | 35.19013 | 63.82436 | 33868 ft | 497 kts | 307° |
| 2026-05-07 11:20 | 35.23237 | 63.75744 | 33868 ft | 497 kts | 307° |
| 2026-05-07 11:20 | 35.27459 | 63.69042 | 33869 ft | 498 kts | 307° |
| 2026-05-07 11:21 | 35.31687 | 63.62321 | 33872 ft | 498 kts | 307° |
| 2026-05-07 11:21 | 35.35938 | 63.55612 | 33873 ft | 499 kts | 307° |
| 2026-05-07 11:22 | 35.40174 | 63.48878 | 33880 ft | 498 kts | 307° |
| 2026-05-07 11:22 | 35.42254 | 63.45576 | 34369 ft | 495 kts | 307° |
| 2026-05-07 11:22 | 35.44351 | 63.42247 | 34885 ft | 492 kts | 307° |
| 2026-05-07 11:23 | 35.46432 | 63.38933 | 35347 ft | 490 kts | 306° |
| 2026-05-07 11:23 | 35.48506 | 63.35627 | 35794 ft | 488 kts | 306° |
| 2026-05-07 11:23 | 35.50572 | 63.32330 | 36174 ft | 487 kts | 306° |
| 2026-05-07 11:23 | 35.52632 | 63.29042 | 36509 ft | 486 kts | 306° |
| 2026-05-07 11:24 | 35.54693 | 63.25749 | 36835 ft | 486 kts | 306° |
| 2026-05-07 11:24 | 35.56751 | 63.22462 | 37150 ft | 485 kts | 306° |
| 2026-05-07 11:24 | 35.58801 | 63.19181 | 37427 ft | 484 kts | 306° |
| 2026-05-07 11:24 | 35.60830 | 63.15890 | 37681 ft | 482 kts | 305° |
| 2026-05-07 11:25 | 35.62833 | 63.12598 | 37883 ft | 479 kts | 305° |
| 2026-05-07 11:25 | 35.64826 | 63.09338 | 37885 ft | 474 kts | 305° |
| 2026-05-07 11:25 | 35.68757 | 63.02940 | 37882 ft | 469 kts | 305° |
| 2026-05-07 11:26 | 35.72700 | 62.96483 | 37882 ft | 475 kts | 305° |
| 2026-05-07 11:27 | 35.80775 | 62.83242 | 37889 ft | 480 kts | 305° |
| 2026-05-07 11:27 | 35.84780 | 62.76657 | 37914 ft | 481 kts | 305° |
| 2026-05-07 11:28 | 35.88796 | 62.70037 | 37918 ft | 482 kts | 304° |
| 2026-05-07 11:28 | 35.92807 | 62.63415 | 37918 ft | 482 kts | 304° |
| 2026-05-07 11:29 | 35.96808 | 62.56794 | 37916 ft | 482 kts | 304° |
| 2026-05-07 11:29 | 36.00787 | 62.50201 | 37918 ft | 481 kts | 304° |
| 2026-05-07 11:30 | 36.04787 | 62.43560 | 37917 ft | 483 kts | 304° |
| 2026-05-07 11:30 | 36.08789 | 62.36899 | 37918 ft | 483 kts | 304° |
| 2026-05-07 11:31 | 36.12794 | 62.30230 | 37916 ft | 482 kts | 304° |
| 2026-05-07 11:31 | 36.16783 | 62.23557 | 37917 ft | 482 kts | 304° |
| 2026-05-07 11:32 | 36.22767 | 62.13539 | 37917 ft | 482 kts | 304° |
| 2026-05-07 11:33 | 36.26748 | 62.06862 | 37918 ft | 482 kts | 304° |
| 2026-05-07 11:33 | 36.30729 | 62.00160 | 37921 ft | 483 kts | 304° |
| 2026-05-07 11:34 | 36.34712 | 61.93455 | 37919 ft | 482 kts | 304° |
| 2026-05-07 11:34 | 36.38678 | 61.86753 | 37924 ft | 482 kts | 304° |
| 2026-05-07 11:35 | 36.42653 | 61.80035 | 37948 ft | 484 kts | 304° |
| 2026-05-07 11:35 | 36.46629 | 61.73287 | 37944 ft | 484 kts | 304° |
| 2026-05-07 11:36 | 36.50603 | 61.66544 | 37940 ft | 483 kts | 304° |
| 2026-05-07 11:36 | 36.54561 | 61.59802 | 37946 ft | 482 kts | 304° |
| 2026-05-07 11:37 | 36.58516 | 61.53063 | 37946 ft | 483 kts | 304° |
| 2026-05-07 11:37 | 36.62471 | 61.46303 | 37939 ft | 483 kts | 304° |
| 2026-05-07 11:38 | 36.66337 | 61.39535 | 37938 ft | 482 kts | 303° |
| 2026-05-07 11:38 | 36.70214 | 61.32703 | 37946 ft | 483 kts | 303° |
| 2026-05-07 11:39 | 36.74106 | 61.25866 | 37942 ft | 484 kts | 303° |
| 2026-05-07 11:39 | 36.77990 | 61.19003 | 37949 ft | 484 kts | 303° |
| 2026-05-07 11:40 | 36.81878 | 61.12137 | 37943 ft | 484 kts | 303° |
| 2026-05-07 11:40 | 36.85758 | 61.05259 | 37951 ft | 484 kts | 303° |
| 2026-05-07 11:41 | 36.89632 | 60.98382 | 37947 ft | 484 kts | 303° |
| 2026-05-07 11:41 | 36.93502 | 60.91498 | 37946 ft | 484 kts | 303° |
| 2026-05-07 11:42 | 36.97371 | 60.84608 | 37947 ft | 484 kts | 304° |
| 2026-05-07 11:42 | 37.01516 | 60.77953 | 37954 ft | 485 kts | 306° |
| 2026-05-07 11:43 | 37.05666 | 60.71304 | 37954 ft | 485 kts | 306° |
| 2026-05-07 11:43 | 37.09821 | 60.64653 | 37954 ft | 485 kts | 306° |
| 2026-05-07 11:44 | 37.13967 | 60.57991 | 37964 ft | 485 kts | 305° |
| 2026-05-07 11:44 | 37.18111 | 60.51328 | 37960 ft | 484 kts | 306° |
| 2026-05-07 11:45 | 37.22247 | 60.44658 | 37961 ft | 484 kts | 305° |
| 2026-05-07 11:45 | 37.26375 | 60.37989 | 37954 ft | 484 kts | 305° |
| 2026-05-07 11:46 | 37.30501 | 60.31313 | 37961 ft | 484 kts | 305° |
| 2026-05-07 11:46 | 37.34628 | 60.24612 | 37978 ft | 485 kts | 305° |
| 2026-05-07 11:47 | 37.38764 | 60.17902 | 37983 ft | 486 kts | 305° |
| 2026-05-07 11:47 | 37.42893 | 60.11169 | 37983 ft | 486 kts | 305° |
| 2026-05-07 11:48 | 37.47023 | 60.04438 | 37979 ft | 486 kts | 305° |
| 2026-05-07 11:48 | 37.51142 | 59.97696 | 37980 ft | 486 kts | 305° |
| 2026-05-07 11:49 | 37.55262 | 59.90950 | 37981 ft | 486 kts | 305° |
| 2026-05-07 11:49 | 37.59353 | 59.84233 | 37982 ft | 486 kts | 305° |
| 2026-05-07 11:50 | 37.63463 | 59.77469 | 37981 ft | 486 kts | 305° |
| 2026-05-07 11:50 | 37.67575 | 59.70693 | 37981 ft | 486 kts | 305° |
| 2026-05-07 11:51 | 37.71673 | 59.63923 | 37984 ft | 485 kts | 304° |
| 2026-05-07 11:51 | 37.75105 | 59.58244 | 37986 ft | 485 kts | 305° |
| 2026-05-07 11:52 | 37.79163 | 59.51514 | 38022 ft | 485 kts | 305° |
| 2026-05-07 11:52 | 37.83278 | 59.44678 | 38028 ft | 485 kts | 305° |
| 2026-05-07 11:53 | 37.87332 | 59.37931 | 38024 ft | 485 kts | 304° |
| 2026-05-07 11:53 | 37.91094 | 59.30884 | 38034 ft | 483 kts | 299° |
| 2026-05-07 11:54 | 37.94597 | 59.23625 | 38034 ft | 483 kts | 299° |
| 2026-05-07 11:54 | 37.98110 | 59.16361 | 38036 ft | 483 kts | 299° |
| 2026-05-07 11:55 | 38.01608 | 59.09083 | 38020 ft | 483 kts | 299° |
| 2026-05-07 11:55 | 38.05111 | 59.01800 | 38021 ft | 484 kts | 299° |
| 2026-05-07 11:56 | 38.08605 | 58.94498 | 38023 ft | 483 kts | 299° |
| 2026-05-07 11:56 | 38.12095 | 58.87209 | 38019 ft | 482 kts | 299° |
| 2026-05-07 11:57 | 38.15566 | 58.79916 | 38033 ft | 483 kts | 298° |
| 2026-05-07 11:57 | 38.19066 | 58.72599 | 38010 ft | 485 kts | 298° |
| 2026-05-07 11:58 | 38.22522 | 58.65290 | 38028 ft | 484 kts | 298° |
| 2026-05-07 11:58 | 38.26003 | 58.57960 | 38025 ft | 484 kts | 298° |
| 2026-05-07 11:59 | 38.29467 | 58.50628 | 38029 ft | 483 kts | 298° |
| 2026-05-07 11:59 | 38.32922 | 58.43303 | 38030 ft | 482 kts | 298° |
| 2026-05-07 12:00 | 38.36374 | 58.35970 | 38031 ft | 483 kts | 298° |
| 2026-05-07 12:00 | 38.39806 | 58.28625 | 38031 ft | 481 kts | 295° |
| 2026-05-07 12:01 | 38.42594 | 58.20937 | 38044 ft | 482 kts | 292° |
| 2026-05-07 12:01 | 38.45368 | 58.13106 | 38044 ft | 481 kts | 292° |
| 2026-05-07 12:02 | 38.48112 | 58.05337 | 38045 ft | 480 kts | 292° |
| 2026-05-07 12:02 | 38.50836 | 57.97608 | 38045 ft | 480 kts | 292° |
| 2026-05-07 12:03 | 38.53565 | 57.89834 | 38045 ft | 480 kts | 291° |
| 2026-05-07 12:03 | 38.56296 | 57.82045 | 38048 ft | 481 kts | 292° |
| 2026-05-07 12:04 | 38.59017 | 57.74251 | 38048 ft | 480 kts | 292° |
| 2026-05-07 12:04 | 38.61772 | 57.66478 | 38053 ft | 482 kts | 297° |
| 2026-05-07 12:05 | 38.65253 | 57.59126 | 38063 ft | 484 kts | 299° |
| 2026-05-07 12:05 | 38.68782 | 57.51796 | 38061 ft | 484 kts | 298° |
| 2026-05-07 12:06 | 38.72296 | 57.44456 | 38064 ft | 484 kts | 298° |
| 2026-05-07 12:06 | 38.75814 | 57.37105 | 38065 ft | 484 kts | 298° |
| 2026-05-07 12:07 | 38.79327 | 57.29740 | 38066 ft | 484 kts | 298° |
| 2026-05-07 12:07 | 38.82831 | 57.22379 | 38107 ft | 484 kts | 298° |
| 2026-05-07 12:08 | 38.86333 | 57.15004 | 38107 ft | 484 kts | 298° |
| 2026-05-07 12:08 | 38.89834 | 57.07617 | 38107 ft | 485 kts | 298° |
| 2026-05-07 12:09 | 38.93331 | 57.00219 | 38105 ft | 485 kts | 298° |
| 2026-05-07 12:09 | 38.96823 | 56.92813 | 38107 ft | 484 kts | 298° |
| 2026-05-07 12:10 | 39.00312 | 56.85403 | 38110 ft | 484 kts | 298° |
| 2026-05-07 12:10 | 39.03796 | 56.77977 | 38108 ft | 485 kts | 298° |
| 2026-05-07 12:11 | 39.07256 | 56.70593 | 38108 ft | 485 kts | 298° |
| 2026-05-07 12:11 | 39.10730 | 56.63154 | 38110 ft | 485 kts | 298° |
| 2026-05-07 12:12 | 39.14200 | 56.55712 | 38110 ft | 484 kts | 298° |
| 2026-05-07 12:12 | 39.17664 | 56.48263 | 38112 ft | 485 kts | 298° |
| 2026-05-07 12:13 | 39.21129 | 56.40799 | 38113 ft | 485 kts | 298° |
| 2026-05-07 12:13 | 39.24588 | 56.33324 | 38113 ft | 485 kts | 298° |
| 2026-05-07 12:14 | 39.28040 | 56.25840 | 38114 ft | 485 kts | 298° |
| 2026-05-07 12:14 | 39.31493 | 56.18357 | 38113 ft | 486 kts | 297° |
| 2026-05-07 12:15 | 39.34938 | 56.10853 | 38110 ft | 486 kts | 297° |
| 2026-05-07 12:15 | 39.38384 | 56.03344 | 38113 ft | 485 kts | 297° |
| 2026-05-07 12:16 | 39.41820 | 55.95826 | 38111 ft | 485 kts | 297° |
| 2026-05-07 12:16 | 39.45251 | 55.88307 | 38111 ft | 485 kts | 297° |
| 2026-05-07 12:17 | 39.48672 | 55.80799 | 38110 ft | 484 kts | 297° |
| 2026-05-07 12:17 | 39.52134 | 55.73309 | 38108 ft | 485 kts | 298° |
| 2026-05-07 12:18 | 39.55621 | 55.65838 | 38110 ft | 485 kts | 297° |
| 2026-05-07 12:18 | 39.59082 | 55.58337 | 38109 ft | 484 kts | 298° |
| 2026-05-07 12:19 | 39.62546 | 55.50853 | 38108 ft | 484 kts | 298° |
| 2026-05-07 12:19 | 39.65997 | 55.43351 | 38109 ft | 484 kts | 298° |
| 2026-05-07 12:20 | 39.69305 | 55.35758 | 38122 ft | 481 kts | 289° |
| 2026-05-07 12:20 | 39.71289 | 55.27562 | 38111 ft | 479 kts | 283° |
| 2026-05-07 12:21 | 39.73093 | 55.19237 | 38114 ft | 479 kts | 283° |
| 2026-05-07 12:21 | 39.74899 | 55.10914 | 38113 ft | 479 kts | 283° |
| 2026-05-07 12:22 | 39.76694 | 55.02586 | 38113 ft | 479 kts | 283° |
| 2026-05-07 12:22 | 39.78485 | 54.94252 | 38113 ft | 479 kts | 283° |
| 2026-05-07 12:23 | 39.80271 | 54.85909 | 38113 ft | 479 kts | 283° |
| 2026-05-07 12:23 | 39.82053 | 54.77556 | 38111 ft | 480 kts | 283° |
| 2026-05-07 12:24 | 39.83840 | 54.69183 | 38107 ft | 480 kts | 283° |
| 2026-05-07 12:24 | 39.85628 | 54.60815 | 38105 ft | 480 kts | 283° |
| 2026-05-07 12:25 | 39.87402 | 54.52457 | 38106 ft | 479 kts | 283° |
| 2026-05-07 12:25 | 39.89172 | 54.44081 | 38107 ft | 480 kts | 283° |
| 2026-05-07 12:26 | 39.90924 | 54.35710 | 38107 ft | 480 kts | 282° |
| 2026-05-07 12:26 | 39.92672 | 54.27307 | 38109 ft | 480 kts | 282° |
| 2026-05-07 12:27 | 39.94416 | 54.18918 | 38109 ft | 480 kts | 282° |
| 2026-05-07 12:27 | 39.96152 | 54.10506 | 38110 ft | 481 kts | 282° |
| 2026-05-07 12:28 | 39.97885 | 54.02089 | 38111 ft | 481 kts | 282° |
| 2026-05-07 12:28 | 39.99613 | 53.93665 | 38109 ft | 481 kts | 282° |
| 2026-05-07 12:29 | 40.01335 | 53.85238 | 38107 ft | 481 kts | 282° |
| 2026-05-07 12:29 | 40.03046 | 53.76809 | 38108 ft | 481 kts | 282° |
| 2026-05-07 12:30 | 40.04760 | 53.68367 | 38109 ft | 481 kts | 282° |
| 2026-05-07 12:30 | 40.06458 | 53.59929 | 38107 ft | 481 kts | 282° |
| 2026-05-07 12:31 | 40.08157 | 53.51482 | 38110 ft | 481 kts | 282° |
| 2026-05-07 12:31 | 40.09850 | 53.43028 | 38113 ft | 481 kts | 282° |
| 2026-05-07 12:32 | 40.11521 | 53.34627 | 38112 ft | 481 kts | 282° |
| 2026-05-07 12:32 | 40.13201 | 53.26169 | 38109 ft | 481 kts | 282° |
| 2026-05-07 12:33 | 40.15708 | 53.13471 | 38109 ft | 481 kts | 282° |
| 2026-05-07 12:33 | 40.17370 | 53.04995 | 38112 ft | 481 kts | 282° |
| 2026-05-07 12:34 | 40.19027 | 52.96525 | 38109 ft | 481 kts | 282° |
| 2026-05-07 12:34 | 40.20680 | 52.88050 | 38114 ft | 480 kts | 281° |
| 2026-05-07 12:35 | 40.22316 | 52.79589 | 38112 ft | 480 kts | 281° |
| 2026-05-07 12:35 | 40.23953 | 52.71128 | 38107 ft | 479 kts | 281° |
| 2026-05-07 12:36 | 40.25577 | 52.62669 | 38106 ft | 479 kts | 281° |
| 2026-05-07 12:36 | 40.27197 | 52.54206 | 38108 ft | 479 kts | 281° |
| 2026-05-07 12:37 | 40.28807 | 52.45814 | 38106 ft | 479 kts | 281° |
| 2026-05-07 12:37 | 40.30420 | 52.37343 | 38104 ft | 479 kts | 281° |
| 2026-05-07 12:38 | 40.32021 | 52.28882 | 38108 ft | 478 kts | 281° |
| 2026-05-07 12:38 | 40.33620 | 52.20411 | 38112 ft | 479 kts | 281° |
| 2026-05-07 12:39 | 40.35215 | 52.11920 | 38109 ft | 480 kts | 281° |
| 2026-05-07 12:39 | 40.36807 | 52.03422 | 38097 ft | 478 kts | 281° |
| 2026-05-07 12:40 | 40.38120 | 51.96382 | 38095 ft | 479 kts | 281° |
| 2026-05-07 12:40 | 40.39708 | 51.87825 | 38100 ft | 480 kts | 281° |
| 2026-05-07 12:41 | 40.41281 | 51.79316 | 38103 ft | 480 kts | 281° |
| 2026-05-07 12:41 | 40.42835 | 51.70859 | 38102 ft | 480 kts | 281° |
| 2026-05-07 12:42 | 40.44408 | 51.62287 | 38102 ft | 481 kts | 281° |
| 2026-05-07 12:42 | 40.45962 | 51.53755 | 38090 ft | 480 kts | 281° |
| 2026-05-07 12:43 | 40.47629 | 51.45265 | 38080 ft | 481 kts | 282° |
| 2026-05-07 12:43 | 40.49326 | 51.36815 | 38093 ft | 482 kts | 282° |
| 2026-05-07 12:44 | 40.51078 | 51.28257 | 38074 ft | 482 kts | 282° |
| 2026-05-07 12:44 | 40.52792 | 51.19755 | 38073 ft | 481 kts | 282° |
| 2026-05-07 12:45 | 40.54507 | 51.11250 | 38074 ft | 481 kts | 282° |
| 2026-05-07 12:45 | 40.56205 | 51.02794 | 38075 ft | 482 kts | 282° |
| 2026-05-07 12:46 | 40.57907 | 50.94277 | 38079 ft | 481 kts | 282° |
| 2026-05-07 12:46 | 40.59599 | 50.85754 | 38089 ft | 482 kts | 282° |
| 2026-05-07 12:47 | 40.61288 | 50.77236 | 38088 ft | 481 kts | 282° |
| 2026-05-07 12:47 | 40.62971 | 50.68708 | 38076 ft | 481 kts | 282° |
| 2026-05-07 12:48 | 40.64643 | 50.60188 | 38075 ft | 481 kts | 282° |
| 2026-05-07 12:48 | 40.66312 | 50.51658 | 38076 ft | 481 kts | 282° |
| 2026-05-07 12:49 | 40.67977 | 50.43121 | 38076 ft | 481 kts | 281° |
| 2026-05-07 12:49 | 40.69627 | 50.34577 | 38077 ft | 481 kts | 281° |
| 2026-05-07 12:50 | 40.71272 | 50.26039 | 38078 ft | 481 kts | 281° |
| 2026-05-07 12:50 | 40.72914 | 50.17490 | 38077 ft | 481 kts | 281° |
| 2026-05-07 12:51 | 40.74547 | 50.08940 | 38077 ft | 481 kts | 281° |
| 2026-05-07 12:51 | 40.76171 | 50.00388 | 38076 ft | 481 kts | 281° |
| 2026-05-07 12:52 | 40.77795 | 49.91828 | 38076 ft | 482 kts | 281° |
| 2026-05-07 12:52 | 40.79411 | 49.83244 | 38078 ft | 482 kts | 281° |
| 2026-05-07 12:53 | 40.81025 | 49.74647 | 38079 ft | 483 kts | 281° |
| 2026-05-07 12:53 | 40.82634 | 49.66040 | 38079 ft | 483 kts | 281° |
| 2026-05-07 12:54 | 40.84232 | 49.57430 | 38083 ft | 483 kts | 281° |
| 2026-05-07 12:54 | 40.85821 | 49.48873 | 38079 ft | 483 kts | 281° |
| 2026-05-07 12:55 | 40.87410 | 49.40248 | 38080 ft | 484 kts | 281° |
| 2026-05-07 12:55 | 40.88989 | 49.31604 | 38080 ft | 483 kts | 280° |
| 2026-05-07 12:56 | 40.90424 | 49.22945 | 38078 ft | 482 kts | 279° |
| 2026-05-07 12:56 | 40.91905 | 49.14303 | 38080 ft | 483 kts | 280° |
| 2026-05-07 12:57 | 40.93365 | 49.05626 | 38079 ft | 483 kts | 279° |
| 2026-05-07 12:57 | 40.94820 | 48.96953 | 38078 ft | 483 kts | 280° |
| 2026-05-07 12:58 | 40.96272 | 48.88261 | 38079 ft | 484 kts | 279° |
| 2026-05-07 12:58 | 40.97718 | 48.79563 | 38095 ft | 484 kts | 279° |
| 2026-05-07 12:59 | 40.99156 | 48.70853 | 38092 ft | 484 kts | 279° |
| 2026-05-07 12:59 | 41.00591 | 48.62138 | 38095 ft | 485 kts | 279° |
| 2026-05-07 13:00 | 41.02019 | 48.53412 | 38097 ft | 485 kts | 279° |
| 2026-05-07 13:00 | 41.03443 | 48.44682 | 38099 ft | 486 kts | 279° |
| 2026-05-07 13:01 | 41.04860 | 48.35927 | 38095 ft | 486 kts | 279° |
| 2026-05-07 13:01 | 41.06261 | 48.27227 | 38095 ft | 486 kts | 279° |
| 2026-05-07 13:02 | 41.07678 | 48.18403 | 38101 ft | 487 kts | 279° |
| 2026-05-07 13:02 | 41.09070 | 48.09677 | 38105 ft | 487 kts | 279° |
| 2026-05-07 13:03 | 41.10334 | 48.00874 | 38127 ft | 484 kts | 272° |
| 2026-05-07 13:03 | 41.09858 | 47.92032 | 38128 ft | 482 kts | 256° |
| 2026-05-07 13:04 | 41.08335 | 47.83382 | 38112 ft | 482 kts | 255° |
| 2026-05-07 13:04 | 41.06800 | 47.74753 | 38109 ft | 480 kts | 256° |
| 2026-05-07 13:05 | 41.05267 | 47.66145 | 38111 ft | 480 kts | 255° |
| 2026-05-07 13:05 | 41.03725 | 47.57544 | 38111 ft | 480 kts | 255° |
| 2026-05-07 13:06 | 41.02177 | 47.48945 | 38113 ft | 480 kts | 255° |
| 2026-05-07 13:06 | 41.00622 | 47.40354 | 38109 ft | 480 kts | 255° |
| 2026-05-07 13:07 | 40.99063 | 47.31765 | 38112 ft | 480 kts | 255° |
| 2026-05-07 13:07 | 40.97492 | 47.23175 | 38094 ft | 481 kts | 255° |
| 2026-05-07 13:08 | 40.95922 | 47.14585 | 38101 ft | 480 kts | 255° |
| 2026-05-07 13:08 | 40.94337 | 47.06004 | 38087 ft | 480 kts | 255° |
| 2026-05-07 13:09 | 40.92753 | 46.97423 | 38092 ft | 480 kts | 255° |
| 2026-05-07 13:09 | 40.91159 | 46.88856 | 38085 ft | 480 kts | 255° |
| 2026-05-07 13:10 | 40.89733 | 46.80247 | 38107 ft | 481 kts | 261° |
| 2026-05-07 13:10 | 40.88911 | 46.71439 | 38092 ft | 482 kts | 261° |
| 2026-05-07 13:11 | 40.88083 | 46.62658 | 38093 ft | 482 kts | 261° |
| 2026-05-07 13:11 | 40.87247 | 46.53882 | 38095 ft | 481 kts | 261° |
| 2026-05-07 13:12 | 40.86406 | 46.45108 | 38094 ft | 481 kts | 261° |
| 2026-05-07 13:12 | 40.85558 | 46.36337 | 38086 ft | 481 kts | 261° |
| 2026-05-07 13:13 | 40.84706 | 46.27633 | 38074 ft | 481 kts | 261° |
| 2026-05-07 13:13 | 40.83842 | 46.18809 | 38076 ft | 481 kts | 261° |
| 2026-05-07 13:14 | 40.82971 | 46.10054 | 38078 ft | 481 kts | 261° |
| 2026-05-07 13:14 | 40.82106 | 46.01353 | 38078 ft | 481 kts | 261° |
| 2026-05-07 13:15 | 40.81222 | 45.92594 | 38079 ft | 482 kts | 261° |
| 2026-05-07 13:15 | 40.80331 | 45.83803 | 38084 ft | 483 kts | 261° |
| 2026-05-07 13:16 | 40.79433 | 45.75014 | 38088 ft | 484 kts | 261° |
| 2026-05-07 13:16 | 40.78527 | 45.66216 | 38091 ft | 483 kts | 261° |
| 2026-05-07 13:17 | 40.77615 | 45.57423 | 38091 ft | 484 kts | 261° |
| 2026-05-07 13:17 | 40.76955 | 45.48590 | 38111 ft | 486 kts | 270° |
| 2026-05-07 13:18 | 40.77353 | 45.39669 | 38100 ft | 487 kts | 271° |
| 2026-05-07 13:18 | 40.77766 | 45.30748 | 38093 ft | 487 kts | 271° |
| 2026-05-07 13:19 | 40.78164 | 45.21834 | 38090 ft | 487 kts | 271° |
| 2026-05-07 13:19 | 40.78562 | 45.12923 | 38088 ft | 487 kts | 271° |
| 2026-05-07 13:20 | 40.78948 | 45.03997 | 38088 ft | 488 kts | 271° |
| 2026-05-07 13:20 | 40.79331 | 44.95063 | 38099 ft | 488 kts | 271° |
| 2026-05-07 13:21 | 40.79706 | 44.86122 | 38094 ft | 488 kts | 271° |
| 2026-05-07 13:21 | 40.80076 | 44.77175 | 38092 ft | 488 kts | 271° |
| 2026-05-07 13:22 | 40.80437 | 44.68223 | 38092 ft | 488 kts | 271° |
| 2026-05-07 13:22 | 40.80792 | 44.59275 | 38093 ft | 488 kts | 271° |
| 2026-05-07 13:23 | 40.81139 | 44.50313 | 38088 ft | 489 kts | 271° |
| 2026-05-07 13:23 | 40.81482 | 44.41366 | 38146 ft | 488 kts | 271° |
| 2026-05-07 13:24 | 40.81816 | 44.32412 | 38123 ft | 489 kts | 271° |
| 2026-05-07 13:24 | 40.82088 | 44.24964 | 38134 ft | 489 kts | 271° |
| 2026-05-07 13:25 | 40.82409 | 44.16013 | 38148 ft | 488 kts | 271° |
| 2026-05-07 13:25 | 40.82724 | 44.07059 | 38148 ft | 488 kts | 271° |
| 2026-05-07 13:26 | 40.83032 | 43.98096 | 38156 ft | 488 kts | 271° |
| 2026-05-07 13:26 | 40.83332 | 43.89129 | 38151 ft | 490 kts | 271° |
| 2026-05-07 13:27 | 40.83629 | 43.80139 | 38150 ft | 490 kts | 271° |
| 2026-05-07 13:27 | 40.83918 | 43.71144 | 38147 ft | 490 kts | 271° |
| 2026-05-07 13:28 | 40.84379 | 43.62160 | 38167 ft | 491 kts | 272° |
| 2026-05-07 13:28 | 40.84849 | 43.53213 | 38161 ft | 491 kts | 272° |
| 2026-05-07 13:29 | 40.85361 | 43.44218 | 38162 ft | 492 kts | 272° |
| 2026-05-07 13:29 | 40.85844 | 43.35205 | 38164 ft | 492 kts | 272° |
| 2026-05-07 13:30 | 40.86332 | 43.26184 | 38159 ft | 493 kts | 272° |
| 2026-05-07 13:30 | 40.86807 | 43.17163 | 38165 ft | 493 kts | 272° |
| 2026-05-07 13:31 | 40.87277 | 43.08128 | 38163 ft | 493 kts | 272° |
| 2026-05-07 13:31 | 40.87740 | 42.99097 | 38162 ft | 493 kts | 272° |
| 2026-05-07 13:32 | 40.88196 | 42.90050 | 38162 ft | 493 kts | 272° |
| 2026-05-07 13:32 | 40.88646 | 42.80993 | 38164 ft | 494 kts | 272° |
| 2026-05-07 13:33 | 40.89086 | 42.71948 | 38163 ft | 493 kts | 272° |
| 2026-05-07 13:33 | 40.89524 | 42.62918 | 38162 ft | 492 kts | 272° |
| 2026-05-07 13:34 | 40.90160 | 42.49373 | 38164 ft | 492 kts | 272° |
| 2026-05-07 13:35 | 40.90575 | 42.40383 | 38174 ft | 494 kts | 272° |
| 2026-05-07 13:35 | 40.90986 | 42.31321 | 38179 ft | 494 kts | 272° |
| 2026-05-07 13:36 | 40.91390 | 42.22257 | 38179 ft | 493 kts | 272° |
| 2026-05-07 13:36 | 40.91784 | 42.13214 | 38174 ft | 493 kts | 272° |
| 2026-05-07 13:37 | 40.92176 | 42.04137 | 38181 ft | 495 kts | 272° |
| 2026-05-07 13:37 | 40.92557 | 41.95064 | 38176 ft | 494 kts | 272° |
| 2026-05-07 13:38 | 40.92934 | 41.85941 | 38184 ft | 497 kts | 272° |
| 2026-05-07 13:38 | 40.93306 | 41.76828 | 38182 ft | 496 kts | 272° |
| 2026-05-07 13:39 | 40.93668 | 41.67732 | 38180 ft | 495 kts | 272° |
| 2026-05-07 13:39 | 40.94023 | 41.58623 | 38178 ft | 496 kts | 272° |
| 2026-05-07 13:40 | 40.94372 | 41.49504 | 38197 ft | 497 kts | 272° |
| 2026-05-07 13:40 | 40.94713 | 41.40377 | 38201 ft | 497 kts | 272° |
| 2026-05-07 13:41 | 40.95049 | 41.31241 | 38201 ft | 497 kts | 271° |
| 2026-05-07 13:41 | 40.95372 | 41.22109 | 38201 ft | 497 kts | 271° |
| 2026-05-07 13:42 | 40.95698 | 41.12962 | 38202 ft | 498 kts | 271° |
| 2026-05-07 13:42 | 40.96009 | 41.03815 | 38207 ft | 498 kts | 271° |
| 2026-05-07 13:43 | 40.96318 | 40.94650 | 38208 ft | 499 kts | 271° |
| 2026-05-07 13:43 | 40.96612 | 40.85545 | 38210 ft | 499 kts | 271° |
| 2026-05-07 13:44 | 40.96908 | 40.76370 | 38210 ft | 500 kts | 271° |
| 2026-05-07 13:44 | 40.97188 | 40.67195 | 38214 ft | 499 kts | 271° |
| 2026-05-07 13:45 | 40.97470 | 40.58004 | 38209 ft | 500 kts | 271° |
| 2026-05-07 13:45 | 40.97739 | 40.48818 | 38210 ft | 500 kts | 271° |
| 2026-05-07 13:46 | 40.98002 | 40.39630 | 38206 ft | 499 kts | 271° |
| 2026-05-07 13:46 | 40.98259 | 40.30448 | 38212 ft | 499 kts | 271° |
| 2026-05-07 13:47 | 40.98505 | 40.21262 | 38206 ft | 500 kts | 271° |
| 2026-05-07 13:47 | 40.98746 | 40.12056 | 38214 ft | 501 kts | 271° |
| 2026-05-07 13:48 | 40.98977 | 40.02842 | 38216 ft | 501 kts | 271° |
| 2026-05-07 13:48 | 40.99200 | 39.93630 | 38217 ft | 501 kts | 271° |
| 2026-05-07 13:49 | 40.99419 | 39.84397 | 38217 ft | 502 kts | 271° |
| 2026-05-07 13:49 | 40.99933 | 39.75250 | 38209 ft | 503 kts | 276° |
| 2026-05-07 13:50 | 41.00836 | 39.66085 | 38220 ft | 502 kts | 276° |
| 2026-05-07 13:50 | 41.01702 | 39.56902 | 38219 ft | 503 kts | 276° |
| 2026-05-07 13:51 | 41.02574 | 39.47718 | 38222 ft | 503 kts | 276° |
| 2026-05-07 13:51 | 41.03435 | 39.38531 | 38215 ft | 503 kts | 276° |
| 2026-05-07 13:52 | 41.04290 | 39.29334 | 38223 ft | 503 kts | 276° |
| 2026-05-07 13:52 | 41.05136 | 39.20140 | 38214 ft | 503 kts | 276° |
| 2026-05-07 13:53 | 41.05978 | 39.10938 | 38207 ft | 503 kts | 276° |
| 2026-05-07 13:53 | 41.06834 | 39.01747 | 38205 ft | 503 kts | 276° |
| 2026-05-07 13:54 | 41.07675 | 38.92555 | 38208 ft | 503 kts | 276° |
| 2026-05-07 13:54 | 41.08512 | 38.83349 | 38200 ft | 502 kts | 276° |
| 2026-05-07 13:55 | 41.09340 | 38.74158 | 38198 ft | 502 kts | 276° |
| 2026-05-07 13:55 | 41.10157 | 38.64966 | 38198 ft | 502 kts | 276° |
| 2026-05-07 13:56 | 41.10935 | 38.55770 | 38197 ft | 502 kts | 276° |
| 2026-05-07 13:56 | 41.11709 | 38.46562 | 38189 ft | 503 kts | 276° |
| 2026-05-07 13:57 | 41.12474 | 38.37347 | 38190 ft | 503 kts | 276° |
| 2026-05-07 13:57 | 41.13232 | 38.28132 | 38189 ft | 502 kts | 276° |
| 2026-05-07 13:58 | 41.13984 | 38.18976 | 38189 ft | 503 kts | 276° |
| 2026-05-07 13:58 | 41.14737 | 38.09750 | 38191 ft | 504 kts | 276° |
| 2026-05-07 13:59 | 41.15482 | 38.00486 | 38189 ft | 505 kts | 276° |
| 2026-05-07 13:59 | 41.16219 | 37.91243 | 38188 ft | 504 kts | 276° |
| 2026-05-07 14:00 | 41.16980 | 37.81986 | 38187 ft | 504 kts | 277° |
| 2026-05-07 14:00 | 41.17785 | 37.72746 | 38188 ft | 504 kts | 276° |
| 2026-05-07 14:01 | 41.18548 | 37.63504 | 38179 ft | 504 kts | 276° |
| 2026-05-07 14:01 | 41.19080 | 37.54233 | 38182 ft | 503 kts | 277° |
| 2026-05-07 14:02 | 41.19801 | 37.44979 | 38179 ft | 503 kts | 275° |
| 2026-05-07 14:02 | 41.20464 | 37.35727 | 38175 ft | 503 kts | 276° |
| 2026-05-07 14:03 | 41.21164 | 37.26483 | 38172 ft | 503 kts | 275° |
| 2026-05-07 14:03 | 41.21833 | 37.17248 | 38169 ft | 502 kts | 276° |
| 2026-05-07 14:04 | 41.22580 | 37.08084 | 38157 ft | 503 kts | 276° |
| 2026-05-07 14:04 | 41.23268 | 36.98854 | 38160 ft | 503 kts | 276° |
| 2026-05-07 14:05 | 41.23983 | 36.89607 | 38162 ft | 504 kts | 276° |
| 2026-05-07 14:05 | 41.24669 | 36.80397 | 38170 ft | 504 kts | 276° |
| 2026-05-07 14:06 | 41.25366 | 36.71079 | 38493 ft | 503 kts | 276° |
| 2026-05-07 14:06 | 41.25707 | 36.66451 | 38782 ft | 502 kts | 276° |
| 2026-05-07 14:06 | 41.26044 | 36.61830 | 39035 ft | 502 kts | 276° |
| 2026-05-07 14:06 | 41.26386 | 36.57222 | 39284 ft | 501 kts | 278° |
| 2026-05-07 14:07 | 41.27114 | 36.52705 | 39560 ft | 499 kts | 289° |
| 2026-05-07 14:07 | 41.28210 | 36.48331 | 39795 ft | 499 kts | 289° |
| 2026-05-07 14:07 | 41.29337 | 36.43973 | 40017 ft | 499 kts | 289° |
| 2026-05-07 14:07 | 41.30464 | 36.39611 | 40232 ft | 499 kts | 289° |
| 2026-05-07 14:08 | 41.31572 | 36.35235 | 40439 ft | 499 kts | 288° |
| 2026-05-07 14:08 | 41.32673 | 36.30859 | 40643 ft | 499 kts | 289° |
| 2026-05-07 14:08 | 41.33785 | 36.26479 | 40842 ft | 500 kts | 289° |
| 2026-05-07 14:08 | 41.34898 | 36.22104 | 41041 ft | 500 kts | 289° |
| 2026-05-07 14:09 | 41.36009 | 36.17707 | 41224 ft | 501 kts | 288° |
| 2026-05-07 14:09 | 41.37112 | 36.13317 | 41407 ft | 501 kts | 288° |
| 2026-05-07 14:09 | 41.38220 | 36.08911 | 41593 ft | 502 kts | 288° |
| 2026-05-07 14:09 | 41.39328 | 36.04506 | 41764 ft | 502 kts | 288° |
| 2026-05-07 14:10 | 41.40435 | 36.00094 | 41948 ft | 503 kts | 288° |
| 2026-05-07 14:10 | 41.41539 | 35.95678 | 42122 ft | 503 kts | 288° |
| 2026-05-07 14:10 | 41.42645 | 35.91247 | 42301 ft | 504 kts | 288° |
| 2026-05-07 14:10 | 41.43749 | 35.86822 | 42465 ft | 504 kts | 288° |
| 2026-05-07 14:11 | 41.44853 | 35.82386 | 42647 ft | 504 kts | 288° |
| 2026-05-07 14:11 | 41.45956 | 35.77943 | 42806 ft | 505 kts | 288° |
| 2026-05-07 14:11 | 41.47057 | 35.73498 | 42961 ft | 505 kts | 288° |
| 2026-05-07 14:11 | 41.48159 | 35.69047 | 43112 ft | 506 kts | 288° |
| 2026-05-07 14:12 | 41.49258 | 35.64595 | 43118 ft | 503 kts | 288° |
| 2026-05-07 14:12 | 41.51426 | 35.55789 | 43130 ft | 498 kts | 288° |
| 2026-05-07 14:13 | 41.53591 | 35.46966 | 43127 ft | 502 kts | 288° |
| 2026-05-07 14:13 | 41.55767 | 35.38063 | 43135 ft | 508 kts | 288° |
| 2026-05-07 14:14 | 41.57959 | 35.29059 | 43137 ft | 511 kts | 288° |
| 2026-05-07 14:14 | 41.59776 | 35.21567 | 43138 ft | 510 kts | 288° |
| 2026-05-07 14:15 | 41.62318 | 35.11048 | 43136 ft | 509 kts | 288° |
| 2026-05-07 14:15 | 41.64473 | 35.02091 | 43139 ft | 509 kts | 288° |
| 2026-05-07 14:16 | 41.66284 | 34.94536 | 43141 ft | 509 kts | 288° |
| 2026-05-07 14:16 | 41.68441 | 34.85509 | 43137 ft | 509 kts | 288° |
| 2026-05-07 14:17 | 41.70585 | 34.76496 | 43138 ft | 508 kts | 288° |
| 2026-05-07 14:17 | 41.72708 | 34.67542 | 43139 ft | 508 kts | 288° |
| 2026-05-07 14:18 | 41.74838 | 34.58517 | 43136 ft | 509 kts | 288° |
| 2026-05-07 14:18 | 41.76965 | 34.49473 | 43142 ft | 509 kts | 288° |
| 2026-05-07 14:19 | 41.79085 | 34.40418 | 43141 ft | 510 kts | 288° |
| 2026-05-07 14:19 | 41.81199 | 34.31352 | 43143 ft | 510 kts | 288° |
| 2026-05-07 14:20 | 41.83308 | 34.22272 | 43145 ft | 510 kts | 287° |
| 2026-05-07 14:20 | 41.85407 | 34.13203 | 43144 ft | 509 kts | 287° |
| 2026-05-07 14:21 | 41.87494 | 34.04142 | 43141 ft | 508 kts | 287° |
| 2026-05-07 14:21 | 41.89573 | 33.95083 | 43144 ft | 508 kts | 287° |
| 2026-05-07 14:22 | 41.91643 | 33.86027 | 43137 ft | 507 kts | 287° |
| 2026-05-07 14:22 | 41.93706 | 33.76962 | 43140 ft | 507 kts | 287° |
| 2026-05-07 14:23 | 41.95668 | 33.67864 | 43155 ft | 507 kts | 284° |
| 2026-05-07 14:23 | 41.97459 | 33.58673 | 43157 ft | 509 kts | 285° |
| 2026-05-07 14:24 | 41.99228 | 33.49457 | 43156 ft | 509 kts | 284° |
| 2026-05-07 14:24 | 42.00992 | 33.40237 | 43155 ft | 509 kts | 285° |
| 2026-05-07 14:25 | 42.02749 | 33.31027 | 43154 ft | 508 kts | 284° |
| 2026-05-07 14:25 | 42.04493 | 33.21814 | 43154 ft | 509 kts | 284° |
| 2026-05-07 14:26 | 42.06237 | 33.12585 | 43157 ft | 509 kts | 284° |
| 2026-05-07 14:26 | 42.08076 | 33.03386 | 43148 ft | 509 kts | 285° |
| 2026-05-07 14:27 | 42.09907 | 32.94196 | 43152 ft | 508 kts | 285° |
| 2026-05-07 14:27 | 42.11801 | 32.85032 | 43152 ft | 508 kts | 285° |
| 2026-05-07 14:28 | 42.13654 | 32.75843 | 43152 ft | 508 kts | 285° |
| 2026-05-07 14:28 | 42.15512 | 32.66670 | 43149 ft | 508 kts | 285° |
| 2026-05-07 14:29 | 42.17356 | 32.57493 | 43145 ft | 506 kts | 285° |
| 2026-05-07 14:29 | 42.19183 | 32.48340 | 43138 ft | 506 kts | 285° |
| 2026-05-07 14:30 | 42.21008 | 32.39174 | 43141 ft | 506 kts | 285° |
| 2026-05-07 14:30 | 42.22822 | 32.30007 | 43143 ft | 506 kts | 285° |
| 2026-05-07 14:31 | 42.24630 | 32.20836 | 43143 ft | 505 kts | 285° |
| 2026-05-07 14:31 | 42.26410 | 32.11720 | 43141 ft | 506 kts | 285° |
| 2026-05-07 14:32 | 42.28211 | 32.02524 | 43145 ft | 507 kts | 285° |
| 2026-05-07 14:32 | 42.30008 | 31.93311 | 43146 ft | 507 kts | 285° |
| 2026-05-07 14:33 | 42.31794 | 31.84094 | 43147 ft | 507 kts | 285° |
| 2026-05-07 14:33 | 42.33578 | 31.74863 | 43141 ft | 508 kts | 285° |
| 2026-05-07 14:34 | 42.35349 | 31.65638 | 43131 ft | 506 kts | 285° |
| 2026-05-07 14:34 | 42.37112 | 31.56425 | 43133 ft | 506 kts | 285° |
| 2026-05-07 14:35 | 42.38867 | 31.47200 | 43133 ft | 507 kts | 285° |
| 2026-05-07 14:35 | 42.40617 | 31.37965 | 43133 ft | 507 kts | 285° |
| 2026-05-07 14:36 | 42.42359 | 31.28723 | 43134 ft | 507 kts | 284° |
| 2026-05-07 14:36 | 42.44093 | 31.19481 | 43132 ft | 506 kts | 284° |
| 2026-05-07 14:37 | 42.45816 | 31.10257 | 43133 ft | 505 kts | 284° |
| 2026-05-07 14:37 | 42.48374 | 30.96444 | 43131 ft | 504 kts | 284° |
| 2026-05-07 14:38 | 42.50070 | 30.87239 | 43128 ft | 503 kts | 284° |
| 2026-05-07 14:38 | 42.51757 | 30.78028 | 43135 ft | 504 kts | 284° |
| 2026-05-07 14:39 | 42.53440 | 30.68798 | 43137 ft | 505 kts | 284° |
| 2026-05-07 14:39 | 42.55115 | 30.59569 | 43136 ft | 504 kts | 284° |
| 2026-05-07 14:40 | 42.56782 | 30.50334 | 43138 ft | 504 kts | 284° |
| 2026-05-07 14:40 | 42.58431 | 30.41153 | 43137 ft | 504 kts | 284° |
| 2026-05-07 14:41 | 42.60090 | 30.31935 | 43135 ft | 502 kts | 287° |
| 2026-05-07 14:41 | 42.61562 | 30.22675 | 43165 ft | 503 kts | 274° |
| 2026-05-07 14:42 | 42.60897 | 30.13232 | 43160 ft | 507 kts | 253° |
| 2026-05-07 14:42 | 42.57785 | 30.04662 | 43150 ft | 510 kts | 232° |
| 2026-05-07 14:43 | 42.52584 | 29.98143 | 43148 ft | 514 kts | 212° |
| 2026-05-07 14:43 | 42.49399 | 29.95952 | 43148 ft | 516 kts | 201° |
| 2026-05-07 14:43 | 42.45954 | 29.94590 | 43143 ft | 517 kts | 190° |
| 2026-05-07 14:44 | 42.42372 | 29.94117 | 43147 ft | 519 kts | 179° |
| 2026-05-07 14:44 | 42.38768 | 29.94557 | 43150 ft | 521 kts | 168° |
| 2026-05-07 14:44 | 42.35282 | 29.95899 | 43149 ft | 523 kts | 157° |
| 2026-05-07 14:44 | 42.32034 | 29.98104 | 43145 ft | 524 kts | 146° |
| 2026-05-07 14:45 | 42.29144 | 30.01097 | 43149 ft | 525 kts | 135° |
| 2026-05-07 14:45 | 42.26717 | 30.04770 | 43150 ft | 525 kts | 124° |
| 2026-05-07 14:45 | 42.24843 | 30.08985 | 43150 ft | 525 kts | 113° |
| 2026-05-07 14:45 | 42.23585 | 30.13603 | 43156 ft | 524 kts | 102° |
| 2026-05-07 14:46 | 42.21854 | 30.23157 | 43131 ft | 524 kts | 102° |
| 2026-05-07 14:46 | 42.20162 | 30.32726 | 43126 ft | 524 kts | 103° |
| 2026-05-07 14:47 | 42.19558 | 30.37552 | 43155 ft | 522 kts | 91° |
| 2026-05-07 14:47 | 42.19642 | 30.42441 | 43157 ft | 522 kts | 80° |
| 2026-05-07 14:47 | 42.20403 | 30.47215 | 43155 ft | 521 kts | 69° |
| 2026-05-07 14:47 | 42.21799 | 30.51701 | 43155 ft | 519 kts | 59° |
| 2026-05-07 14:48 | 42.23781 | 30.55754 | 43152 ft | 516 kts | 48° |
| 2026-05-07 14:48 | 42.26229 | 30.59182 | 43156 ft | 514 kts | 38° |
| 2026-05-07 14:48 | 42.29133 | 30.61987 | 43157 ft | 512 kts | 27° |
| 2026-05-07 14:48 | 42.32352 | 30.64017 | 43155 ft | 511 kts | 17° |
| 2026-05-07 14:49 | 42.35780 | 30.65215 | 43152 ft | 509 kts | 6° |
| 2026-05-07 14:49 | 42.39301 | 30.65547 | 43154 ft | 507 kts | 356° |
| 2026-05-07 14:49 | 42.46161 | 30.63623 | 43164 ft | 505 kts | 335° |
| 2026-05-07 14:50 | 42.52039 | 30.58531 | 43162 ft | 504 kts | 315° |
| 2026-05-07 14:50 | 42.56192 | 30.50947 | 43163 ft | 504 kts | 294° |
| 2026-05-07 14:51 | 42.58562 | 30.42004 | 43139 ft | 504 kts | 286° |
| 2026-05-07 14:51 | 42.60400 | 30.32851 | 43139 ft | 502 kts | 286° |
| 2026-05-07 14:52 | 42.62396 | 30.23771 | 43140 ft | 502 kts | 288° |
| 2026-05-07 14:52 | 42.63661 | 30.19365 | 43164 ft | 501 kts | 299° |
| 2026-05-07 14:52 | 42.65535 | 30.15382 | 43166 ft | 502 kts | 310° |
| 2026-05-07 14:53 | 42.67968 | 30.11978 | 43167 ft | 504 kts | 321° |
| 2026-05-07 14:53 | 42.70858 | 30.09299 | 43167 ft | 504 kts | 333° |
| 2026-05-07 14:53 | 42.77529 | 30.06442 | 43159 ft | 507 kts | 354° |
| 2026-05-07 14:54 | 42.84544 | 30.07018 | 43153 ft | 510 kts | 15° |
| 2026-05-07 14:54 | 42.90988 | 30.11012 | 43168 ft | 514 kts | 36° |
| 2026-05-07 14:55 | 42.95979 | 30.17968 | 43167 ft | 517 kts | 57° |
| 2026-05-07 14:55 | 42.97691 | 30.22287 | 43163 ft | 519 kts | 68° |
| 2026-05-07 14:55 | 42.98789 | 30.26978 | 43162 ft | 520 kts | 79° |
| 2026-05-07 14:56 | 42.99230 | 30.31884 | 43167 ft | 522 kts | 90° |
| 2026-05-07 14:56 | 42.98993 | 30.36822 | 43170 ft | 522 kts | 100° |
| 2026-05-07 14:56 | 42.97362 | 30.46493 | 43134 ft | 522 kts | 103° |
| 2026-05-07 14:57 | 42.95611 | 30.56111 | 43138 ft | 522 kts | 103° |
| 2026-05-07 14:57 | 42.93111 | 30.65355 | 43163 ft | 523 kts | 122° |
| 2026-05-07 14:58 | 42.90961 | 30.69359 | 43165 ft | 524 kts | 133° |
| 2026-05-07 14:58 | 42.88302 | 30.72743 | 43167 ft | 523 kts | 144° |
| 2026-05-07 14:58 | 42.85231 | 30.75387 | 43166 ft | 523 kts | 155° |
| 2026-05-07 14:58 | 42.81855 | 30.77199 | 43163 ft | 522 kts | 166° |
| 2026-05-07 14:59 | 42.78294 | 30.78119 | 43164 ft | 521 kts | 177° |
| 2026-05-07 14:59 | 42.74681 | 30.78120 | 43168 ft | 520 kts | 188° |
| 2026-05-07 14:59 | 42.71134 | 30.77210 | 43171 ft | 518 kts | 199° |
| 2026-05-07 14:59 | 42.67787 | 30.75433 | 43167 ft | 516 kts | 210° |
| 2026-05-07 15:00 | 42.62122 | 30.69581 | 43161 ft | 513 kts | 231° |
| 2026-05-07 15:00 | 42.58410 | 30.61421 | 43169 ft | 509 kts | 251° |
| 2026-05-07 15:01 | 42.57089 | 30.52065 | 43163 ft | 506 kts | 272° |
| 2026-05-07 15:01 | 42.58141 | 30.42742 | 43139 ft | 505 kts | 284° |
| 2026-05-07 15:02 | 42.59800 | 30.33510 | 43135 ft | 503 kts | 284° |
| 2026-05-07 15:02 | 42.61183 | 30.25793 | 43140 ft | 502 kts | 287° |
| 2026-05-07 15:03 | 42.64151 | 30.17272 | 43155 ft | 503 kts | 308° |
| 2026-05-07 15:03 | 42.67277 | 30.12635 | 43162 ft | 504 kts | 321° |
| 2026-05-07 15:03 | 42.70126 | 30.09869 | 43156 ft | 504 kts | 331° |
| 2026-05-07 15:04 | 42.75523 | 30.06945 | 43154 ft | 506 kts | 348° |
| 2026-05-07 15:04 | 42.82959 | 30.06589 | 43151 ft | 507 kts | 10° |
| 2026-05-07 15:05 | 42.89626 | 30.09830 | 43167 ft | 510 kts | 31° |
| 2026-05-07 15:05 | 42.94969 | 30.16091 | 43163 ft | 515 kts | 52° |
| 2026-05-07 15:06 | 42.96946 | 30.20170 | 43160 ft | 517 kts | 63° |
| 2026-05-07 15:06 | 42.98338 | 30.24681 | 43162 ft | 518 kts | 73° |
| 2026-05-07 15:06 | 42.99099 | 30.29496 | 43168 ft | 519 kts | 84° |
| 2026-05-07 15:06 | 42.99193 | 30.34418 | 43171 ft | 519 kts | 95° |
| 2026-05-07 15:07 | 42.97794 | 30.44099 | 43148 ft | 521 kts | 103° |
| 2026-05-07 15:07 | 42.96044 | 30.53692 | 43141 ft | 520 kts | 103° |
| 2026-05-07 15:08 | 42.93972 | 30.63132 | 43162 ft | 521 kts | 117° |
| 2026-05-07 15:08 | 42.92122 | 30.67387 | 43163 ft | 523 kts | 128° |
| 2026-05-07 15:08 | 42.89716 | 30.71100 | 43161 ft | 523 kts | 139° |
| 2026-05-07 15:09 | 42.86856 | 30.74124 | 43161 ft | 523 kts | 150° |
| 2026-05-07 15:09 | 42.83706 | 30.76637 | 43137 ft | 523 kts | 152° |
| 2026-05-07 15:09 | 42.77241 | 30.81100 | 43135 ft | 520 kts | 156° |
| 2026-05-07 15:10 | 42.70545 | 30.84845 | 43142 ft | 521 kts | 161° |
| 2026-05-07 15:10 | 42.63644 | 30.87860 | 43143 ft | 521 kts | 165° |
| 2026-05-07 15:11 | 42.56601 | 30.90119 | 43140 ft | 520 kts | 170° |
| 2026-05-07 15:11 | 42.49463 | 30.91611 | 43138 ft | 519 kts | 175° |
| 2026-05-07 15:12 | 42.42274 | 30.91888 | 43159 ft | 517 kts | 191° |
| 2026-05-07 15:12 | 42.38784 | 30.90773 | 43163 ft | 517 kts | 202° |
| 2026-05-07 15:12 | 42.35518 | 30.88758 | 43166 ft | 515 kts | 213° |
| 2026-05-07 15:13 | 42.32627 | 30.85936 | 43167 ft | 513 kts | 225° |
| 2026-05-07 15:13 | 42.30215 | 30.82421 | 43167 ft | 510 kts | 236° |
| 2026-05-07 15:13 | 42.28370 | 30.78346 | 43168 ft | 508 kts | 247° |
| 2026-05-07 15:13 | 42.27157 | 30.73884 | 43167 ft | 506 kts | 257° |
| 2026-05-07 15:14 | 42.26482 | 30.64575 | 43148 ft | 502 kts | 277° |
| 2026-05-07 15:14 | 42.28185 | 30.55494 | 43150 ft | 500 kts | 296° |
| 2026-05-07 15:15 | 42.32106 | 30.47793 | 43153 ft | 501 kts | 316° |
| 2026-05-07 15:15 | 42.37785 | 30.42407 | 43153 ft | 503 kts | 332° |
| 2026-05-07 15:16 | 42.44022 | 30.38159 | 43133 ft | 501 kts | 333° |
| 2026-05-07 15:16 | 42.50233 | 30.33891 | 43131 ft | 501 kts | 332° |
| 2026-05-07 15:17 | 42.56448 | 30.29620 | 43111 ft | 502 kts | 333° |
| 2026-05-07 15:17 | 42.62262 | 30.24455 | 43156 ft | 501 kts | 315° |
| 2026-05-07 15:18 | 42.66972 | 30.17456 | 43140 ft | 501 kts | 311° |
| 2026-05-07 15:18 | 42.71582 | 30.10381 | 43124 ft | 500 kts | 311° |
| 2026-05-07 15:19 | 42.76216 | 30.03311 | 43132 ft | 499 kts | 311° |
| 2026-05-07 15:19 | 42.80782 | 29.96289 | 43131 ft | 498 kts | 311° |
| 2026-05-07 15:20 | 42.85379 | 29.89225 | 43132 ft | 498 kts | 311° |
| 2026-05-07 15:20 | 42.89970 | 29.82140 | 43127 ft | 499 kts | 311° |
| 2026-05-07 15:21 | 42.94571 | 29.75030 | 43131 ft | 500 kts | 311° |
| 2026-05-07 15:21 | 42.99169 | 29.67903 | 43126 ft | 500 kts | 311° |
| 2026-05-07 15:22 | 43.03762 | 29.60768 | 43126 ft | 500 kts | 311° |
| 2026-05-07 15:22 | 43.08352 | 29.53619 | 43129 ft | 500 kts | 311° |
| 2026-05-07 15:23 | 43.12972 | 29.46407 | 43130 ft | 501 kts | 311° |
| 2026-05-07 15:23 | 43.17525 | 29.39280 | 43130 ft | 500 kts | 311° |
| 2026-05-07 15:24 | 43.22107 | 29.32090 | 43132 ft | 501 kts | 311° |
| 2026-05-07 15:24 | 43.26681 | 29.24897 | 43129 ft | 500 kts | 311° |
| 2026-05-07 15:25 | 43.31245 | 29.17700 | 43127 ft | 499 kts | 311° |
| 2026-05-07 15:25 | 43.35796 | 29.10506 | 43113 ft | 499 kts | 310° |
| 2026-05-07 15:26 | 43.40344 | 29.03299 | 43110 ft | 499 kts | 310° |
| 2026-05-07 15:26 | 43.44881 | 28.96090 | 43109 ft | 498 kts | 310° |
| 2026-05-07 15:27 | 43.49413 | 28.88873 | 43110 ft | 498 kts | 310° |
| 2026-05-07 15:27 | 43.53941 | 28.81644 | 43128 ft | 498 kts | 310° |
| 2026-05-07 15:28 | 43.58464 | 28.74404 | 43131 ft | 498 kts | 310° |
| 2026-05-07 15:28 | 43.62858 | 28.67036 | 43151 ft | 497 kts | 301° |
| 2026-05-07 15:29 | 43.66123 | 28.58585 | 43128 ft | 499 kts | 297° |
| 2026-05-07 15:29 | 43.69456 | 28.50181 | 43111 ft | 499 kts | 300° |
| 2026-05-07 15:30 | 43.72804 | 28.41787 | 43122 ft | 499 kts | 298° |
| 2026-05-07 15:30 | 43.76109 | 28.33332 | 43128 ft | 500 kts | 299° |
| 2026-05-07 15:31 | 43.79453 | 28.24896 | 43128 ft | 500 kts | 298° |
| 2026-05-07 15:31 | 43.82759 | 28.16416 | 43132 ft | 500 kts | 298° |
| 2026-05-07 15:32 | 43.85521 | 28.09390 | 43106 ft | 499 kts | 298° |
| 2026-05-07 15:32 | 43.89373 | 27.99487 | 43103 ft | 499 kts | 298° |
| 2026-05-07 15:33 | 43.92667 | 27.91023 | 43107 ft | 499 kts | 298° |
| 2026-05-07 15:33 | 43.95399 | 27.83968 | 43110 ft | 499 kts | 298° |
| 2026-05-07 15:34 | 43.98672 | 27.75504 | 43108 ft | 497 kts | 298° |
| 2026-05-07 15:34 | 44.01933 | 27.67038 | 43106 ft | 497 kts | 298° |
| 2026-05-07 15:35 | 44.05193 | 27.58554 | 43102 ft | 498 kts | 298° |
| 2026-05-07 15:35 | 44.08449 | 27.50054 | 43105 ft | 498 kts | 298° |
| 2026-05-07 15:36 | 44.11702 | 27.41534 | 43084 ft | 499 kts | 298° |
| 2026-05-07 15:36 | 44.14947 | 27.33010 | 43087 ft | 498 kts | 298° |
| 2026-05-07 15:37 | 44.18181 | 27.24488 | 43070 ft | 498 kts | 298° |
| 2026-05-07 15:37 | 44.21412 | 27.15950 | 43073 ft | 498 kts | 297° |
| 2026-05-07 15:38 | 44.24637 | 27.07401 | 43054 ft | 498 kts | 297° |
| 2026-05-07 15:38 | 44.27831 | 26.98905 | 43054 ft | 498 kts | 297° |
| 2026-05-07 15:39 | 44.31044 | 26.90334 | 43054 ft | 498 kts | 297° |
| 2026-05-07 15:39 | 44.34250 | 26.81758 | 43051 ft | 498 kts | 297° |
| 2026-05-07 15:40 | 44.37450 | 26.73169 | 43041 ft | 498 kts | 297° |
| 2026-05-07 15:40 | 44.40641 | 26.64576 | 43032 ft | 498 kts | 297° |
| 2026-05-07 15:41 | 44.43831 | 26.55963 | 43032 ft | 498 kts | 297° |
| 2026-05-07 15:41 | 44.47010 | 26.47349 | 43032 ft | 498 kts | 297° |
| 2026-05-07 15:42 | 44.50181 | 26.38733 | 43022 ft | 498 kts | 297° |
| 2026-05-07 15:42 | 44.53343 | 26.30113 | 43022 ft | 498 kts | 297° |
| 2026-05-07 15:43 | 44.56502 | 26.21473 | 43023 ft | 498 kts | 297° |
| 2026-05-07 15:43 | 44.59653 | 26.12829 | 43023 ft | 498 kts | 297° |
| 2026-05-07 15:44 | 44.62796 | 26.04179 | 43023 ft | 498 kts | 297° |
| 2026-05-07 15:44 | 44.65936 | 25.95510 | 43023 ft | 498 kts | 296° |
| 2026-05-07 15:45 | 44.69069 | 25.86832 | 43023 ft | 498 kts | 296° |
| 2026-05-07 15:45 | 44.72191 | 25.78158 | 43023 ft | 497 kts | 296° |
| 2026-05-07 15:46 | 44.76787 | 25.65340 | 43020 ft | 497 kts | 296° |
| 2026-05-07 15:47 | 44.79893 | 25.56642 | 43020 ft | 497 kts | 296° |
| 2026-05-07 15:47 | 44.82991 | 25.47939 | 43020 ft | 497 kts | 296° |
| 2026-05-07 15:48 | 44.86059 | 25.39292 | 43019 ft | 497 kts | 296° |
| 2026-05-07 15:48 | 44.89142 | 25.30575 | 43021 ft | 497 kts | 296° |
| 2026-05-07 15:49 | 44.92226 | 25.21825 | 43024 ft | 499 kts | 296° |
| 2026-05-07 15:49 | 44.95314 | 25.13037 | 43028 ft | 499 kts | 296° |
| 2026-05-07 15:50 | 44.98394 | 25.04243 | 43024 ft | 500 kts | 296° |
| 2026-05-07 15:50 | 45.01470 | 24.95433 | 43026 ft | 500 kts | 296° |
| 2026-05-07 15:51 | 45.04538 | 24.86617 | 43026 ft | 500 kts | 296° |
| 2026-05-07 15:51 | 45.07602 | 24.77781 | 43027 ft | 500 kts | 295° |
| 2026-05-07 15:52 | 45.10659 | 24.68938 | 43027 ft | 500 kts | 295° |
| 2026-05-07 15:52 | 45.13707 | 24.60091 | 43026 ft | 500 kts | 295° |
| 2026-05-07 15:53 | 45.16750 | 24.51228 | 43028 ft | 500 kts | 295° |
| 2026-05-07 15:53 | 45.19785 | 24.42362 | 43027 ft | 500 kts | 295° |
| 2026-05-07 15:54 | 45.22800 | 24.33524 | 43013 ft | 500 kts | 295° |
| 2026-05-07 15:54 | 45.25819 | 24.24644 | 43013 ft | 499 kts | 295° |
| 2026-05-07 15:55 | 45.28851 | 24.15697 | 43012 ft | 500 kts | 295° |
| 2026-05-07 15:55 | 45.31837 | 24.06853 | 43011 ft | 500 kts | 295° |
| 2026-05-07 15:56 | 45.34839 | 23.97935 | 43011 ft | 500 kts | 295° |
| 2026-05-07 15:56 | 45.37836 | 23.89001 | 43013 ft | 501 kts | 295° |
| 2026-05-07 15:57 | 45.40827 | 23.80053 | 43004 ft | 501 kts | 295° |
| 2026-05-07 15:57 | 45.43813 | 23.71090 | 43006 ft | 501 kts | 295° |
| 2026-05-07 15:58 | 45.46791 | 23.62123 | 43005 ft | 501 kts | 295° |
| 2026-05-07 15:58 | 45.49760 | 23.53149 | 43008 ft | 501 kts | 295° |
| 2026-05-07 15:59 | 45.52726 | 23.44157 | 43008 ft | 501 kts | 294° |
| 2026-05-07 15:59 | 45.55686 | 23.35150 | 43008 ft | 501 kts | 294° |
| 2026-05-07 16:00 | 45.58891 | 23.25363 | 43009 ft | 501 kts | 294° |
| 2026-05-07 16:00 | 45.61831 | 23.16352 | 43008 ft | 500 kts | 294° |
| 2026-05-07 16:01 | 45.64760 | 23.07342 | 43009 ft | 500 kts | 294° |
| 2026-05-07 16:01 | 45.67687 | 22.98310 | 43011 ft | 501 kts | 294° |
| 2026-05-07 16:02 | 45.70606 | 22.89270 | 43010 ft | 500 kts | 294° |
| 2026-05-07 16:02 | 45.73026 | 22.81752 | 43010 ft | 501 kts | 294° |
| 2026-05-07 16:03 | 45.76424 | 22.71159 | 43011 ft | 501 kts | 294° |
| 2026-05-07 16:03 | 45.79324 | 22.62083 | 43017 ft | 500 kts | 294° |
| 2026-05-07 16:04 | 45.81724 | 22.54548 | 43021 ft | 499 kts | 294° |
| 2026-05-07 16:04 | 45.84598 | 22.45494 | 43019 ft | 499 kts | 294° |
| 2026-05-07 16:05 | 45.87466 | 22.36429 | 43017 ft | 499 kts | 294° |
| 2026-05-07 16:05 | 45.90328 | 22.27350 | 43017 ft | 499 kts | 293° |
| 2026-05-07 16:06 | 45.93181 | 22.18268 | 43016 ft | 499 kts | 293° |
| 2026-05-07 16:06 | 45.96028 | 22.09173 | 43016 ft | 499 kts | 293° |
| 2026-05-07 16:07 | 45.98868 | 22.00068 | 43016 ft | 499 kts | 293° |
| 2026-05-07 16:07 | 46.01701 | 21.90953 | 43017 ft | 499 kts | 293° |
| 2026-05-07 16:08 | 46.04527 | 21.81826 | 43017 ft | 499 kts | 293° |
| 2026-05-07 16:08 | 46.07347 | 21.72687 | 43017 ft | 499 kts | 293° |
| 2026-05-07 16:09 | 46.10156 | 21.63549 | 43018 ft | 499 kts | 293° |
| 2026-05-07 16:09 | 46.12963 | 21.54386 | 43017 ft | 500 kts | 293° |
| 2026-05-07 16:10 | 46.15746 | 21.45269 | 43018 ft | 500 kts | 292° |
| 2026-05-07 16:10 | 46.18539 | 21.36087 | 43019 ft | 500 kts | 292° |
| 2026-05-07 16:11 | 46.21327 | 21.26885 | 43019 ft | 500 kts | 292° |
| 2026-05-07 16:11 | 46.24108 | 21.17674 | 43021 ft | 501 kts | 292° |
| 2026-05-07 16:12 | 46.26936 | 21.08476 | 43034 ft | 501 kts | 294° |
| 2026-05-07 16:12 | 46.29898 | 20.99345 | 43023 ft | 502 kts | 294° |
| 2026-05-07 16:13 | 46.32865 | 20.90198 | 43027 ft | 503 kts | 294° |
| 2026-05-07 16:13 | 46.35828 | 20.81047 | 43026 ft | 502 kts | 294° |
| 2026-05-07 16:14 | 46.38771 | 20.71897 | 43023 ft | 500 kts | 294° |
| 2026-05-07 16:14 | 46.41708 | 20.62762 | 43021 ft | 500 kts | 294° |
| 2026-05-07 16:15 | 46.44611 | 20.53678 | 43020 ft | 500 kts | 294° |
| 2026-05-07 16:15 | 46.47554 | 20.44451 | 43021 ft | 500 kts | 294° |
| 2026-05-07 16:16 | 46.50446 | 20.35340 | 43021 ft | 500 kts | 294° |
| 2026-05-07 16:16 | 46.53350 | 20.26168 | 43020 ft | 500 kts | 293° |
| 2026-05-07 16:17 | 46.56245 | 20.16984 | 43021 ft | 500 kts | 293° |
| 2026-05-07 16:17 | 46.59135 | 20.07788 | 43021 ft | 500 kts | 293° |
| 2026-05-07 16:18 | 46.62017 | 19.98582 | 43020 ft | 500 kts | 293° |
| 2026-05-07 16:18 | 46.64893 | 19.89362 | 43023 ft | 501 kts | 293° |
| 2026-05-07 16:19 | 46.67767 | 19.80116 | 43025 ft | 502 kts | 293° |
| 2026-05-07 16:19 | 46.70639 | 19.70842 | 43028 ft | 502 kts | 293° |
| 2026-05-07 16:20 | 46.73507 | 19.61545 | 43025 ft | 503 kts | 293° |
| 2026-05-07 16:20 | 46.76366 | 19.52244 | 43027 ft | 503 kts | 293° |
| 2026-05-07 16:21 | 46.79221 | 19.42922 | 43027 ft | 503 kts | 292° |
| 2026-05-07 16:21 | 46.82060 | 19.33617 | 43024 ft | 501 kts | 292° |
| 2026-05-07 16:22 | 46.84889 | 19.24310 | 43020 ft | 501 kts | 292° |
| 2026-05-07 16:22 | 46.87708 | 19.15002 | 43019 ft | 501 kts | 292° |
| 2026-05-07 16:23 | 46.90522 | 19.05676 | 42998 ft | 501 kts | 292° |
| 2026-05-07 16:23 | 46.93325 | 18.96350 | 42997 ft | 501 kts | 292° |
| 2026-05-07 16:24 | 46.96122 | 18.87010 | 43008 ft | 501 kts | 292° |
| 2026-05-07 16:24 | 46.98914 | 18.77650 | 43009 ft | 502 kts | 292° |
| 2026-05-07 16:25 | 47.01683 | 18.68335 | 43010 ft | 502 kts | 292° |
| 2026-05-07 16:25 | 47.04466 | 18.58937 | 43006 ft | 503 kts | 292° |
| 2026-05-07 16:26 | 47.07241 | 18.49528 | 43009 ft | 503 kts | 292° |
| 2026-05-07 16:26 | 47.10012 | 18.40100 | 42993 ft | 503 kts | 292° |
| 2026-05-07 16:27 | 47.12775 | 18.30660 | 43001 ft | 504 kts | 292° |
| 2026-05-07 16:27 | 47.15536 | 18.21191 | 42995 ft | 504 kts | 292° |
| 2026-05-07 16:28 | 47.18288 | 18.11715 | 42985 ft | 504 kts | 291° |
| 2026-05-07 16:28 | 47.21031 | 18.02236 | 42976 ft | 504 kts | 291° |
| 2026-05-07 16:29 | 47.23768 | 17.92739 | 42975 ft | 504 kts | 291° |
| 2026-05-07 16:29 | 47.26498 | 17.83228 | 42972 ft | 504 kts | 291° |
| 2026-05-07 16:30 | 47.29221 | 17.73708 | 42981 ft | 505 kts | 291° |
| 2026-05-07 16:30 | 47.31938 | 17.64171 | 42959 ft | 505 kts | 291° |
| 2026-05-07 16:31 | 47.34646 | 17.54627 | 42976 ft | 505 kts | 291° |
| 2026-05-07 16:31 | 47.37344 | 17.45079 | 42964 ft | 505 kts | 291° |
| 2026-05-07 16:32 | 47.40039 | 17.35504 | 42976 ft | 505 kts | 291° |
| 2026-05-07 16:32 | 47.42723 | 17.25932 | 42974 ft | 504 kts | 291° |
| 2026-05-07 16:33 | 47.45398 | 17.16352 | 42976 ft | 505 kts | 291° |
| 2026-05-07 16:33 | 47.48068 | 17.06753 | 42977 ft | 505 kts | 291° |
| 2026-05-07 16:34 | 47.50730 | 16.97144 | 42965 ft | 505 kts | 291° |
| 2026-05-07 16:34 | 47.53383 | 16.87528 | 42979 ft | 505 kts | 290° |
| 2026-05-07 16:35 | 47.56028 | 16.77900 | 42976 ft | 504 kts | 290° |
| 2026-05-07 16:35 | 47.58997 | 16.68482 | 42979 ft | 506 kts | 295° |
| 2026-05-07 16:36 | 47.62139 | 16.59135 | 42978 ft | 507 kts | 294° |
| 2026-05-07 16:36 | 47.65226 | 16.49735 | 42983 ft | 508 kts | 295° |
| 2026-05-07 16:37 | 47.68346 | 16.40329 | 42984 ft | 508 kts | 294° |
| 2026-05-07 16:37 | 47.71433 | 16.30904 | 42980 ft | 508 kts | 294° |
| 2026-05-07 16:38 | 47.74504 | 16.21546 | 42984 ft | 508 kts | 294° |
| 2026-05-07 16:38 | 47.77607 | 16.12024 | 42988 ft | 507 kts | 294° |
| 2026-05-07 16:39 | 47.80655 | 16.02653 | 42978 ft | 507 kts | 294° |
| 2026-05-07 16:39 | 47.83714 | 15.93205 | 42979 ft | 507 kts | 294° |
| 2026-05-07 16:40 | 47.86763 | 15.83757 | 42975 ft | 506 kts | 294° |
| 2026-05-07 16:40 | 47.89806 | 15.74290 | 42972 ft | 507 kts | 294° |
| 2026-05-07 16:41 | 47.92842 | 15.64808 | 42983 ft | 506 kts | 294° |
| 2026-05-07 16:41 | 47.95867 | 15.55329 | 42980 ft | 506 kts | 294° |
| 2026-05-07 16:42 | 47.98883 | 15.45840 | 42984 ft | 506 kts | 294° |
| 2026-05-07 16:42 | 48.01892 | 15.36340 | 42990 ft | 507 kts | 294° |
| 2026-05-07 16:43 | 48.04911 | 15.26770 | 42994 ft | 509 kts | 294° |
| 2026-05-07 16:43 | 48.07918 | 15.17202 | 42993 ft | 508 kts | 293° |
| 2026-05-07 16:44 | 48.10917 | 15.07621 | 42990 ft | 508 kts | 293° |
| 2026-05-07 16:44 | 48.13908 | 14.98033 | 42989 ft | 509 kts | 293° |
| 2026-05-07 16:45 | 48.16891 | 14.88430 | 42990 ft | 509 kts | 293° |
| 2026-05-07 16:45 | 48.19875 | 14.78791 | 43007 ft | 510 kts | 293° |
| 2026-05-07 16:46 | 48.22850 | 14.69141 | 43007 ft | 510 kts | 293° |
| 2026-05-07 16:46 | 48.25820 | 14.59470 | 43015 ft | 510 kts | 293° |
| 2026-05-07 16:47 | 48.28780 | 14.49793 | 43014 ft | 510 kts | 293° |
| 2026-05-07 16:47 | 48.31729 | 14.40115 | 43012 ft | 510 kts | 293° |
| 2026-05-07 16:48 | 48.34654 | 14.30480 | 43015 ft | 510 kts | 293° |
| 2026-05-07 16:48 | 48.37591 | 14.20764 | 43016 ft | 510 kts | 292° |
| 2026-05-07 16:49 | 48.40520 | 14.11039 | 43015 ft | 510 kts | 292° |
| 2026-05-07 16:49 | 48.43439 | 14.01309 | 43018 ft | 510 kts | 292° |
| 2026-05-07 16:50 | 48.46351 | 13.91562 | 43015 ft | 510 kts | 292° |
| 2026-05-07 16:50 | 48.49258 | 13.81793 | 43016 ft | 511 kts | 292° |
| 2026-05-07 16:51 | 48.52156 | 13.72016 | 43014 ft | 511 kts | 292° |
| 2026-05-07 16:51 | 48.55048 | 13.62222 | 43015 ft | 511 kts | 292° |
| 2026-05-07 16:52 | 48.57443 | 13.54079 | 43014 ft | 510 kts | 292° |
| 2026-05-07 16:52 | 48.60512 | 13.44436 | 43025 ft | 510 kts | 295° |
| 2026-05-07 16:53 | 48.63634 | 13.34802 | 43025 ft | 511 kts | 295° |
| 2026-05-07 16:53 | 48.66798 | 13.25187 | 43026 ft | 511 kts | 295° |
| 2026-05-07 16:54 | 48.69925 | 13.15541 | 43024 ft | 510 kts | 295° |
| 2026-05-07 16:54 | 48.73057 | 13.05902 | 43024 ft | 510 kts | 295° |
| 2026-05-07 16:55 | 48.76169 | 12.96258 | 43024 ft | 510 kts | 294° |
| 2026-05-07 16:55 | 48.79282 | 12.86590 | 43024 ft | 510 kts | 294° |
| 2026-05-07 16:56 | 48.82386 | 12.76906 | 43025 ft | 511 kts | 294° |
| 2026-05-07 16:56 | 48.87032 | 12.62342 | 43029 ft | 511 kts | 294° |
| 2026-05-07 16:57 | 48.90121 | 12.52609 | 43030 ft | 512 kts | 294° |
| 2026-05-07 16:57 | 48.93204 | 12.42861 | 43031 ft | 512 kts | 294° |
| 2026-05-07 16:58 | 48.96284 | 12.33082 | 43033 ft | 512 kts | 294° |
| 2026-05-07 16:58 | 48.99356 | 12.23291 | 43034 ft | 512 kts | 294° |
| 2026-05-07 16:59 | 49.02419 | 12.13491 | 43035 ft | 513 kts | 294° |
| 2026-05-07 16:59 | 49.05477 | 12.03669 | 43035 ft | 513 kts | 294° |
| 2026-05-07 17:00 | 49.08502 | 11.93910 | 43036 ft | 513 kts | 294° |
| 2026-05-07 17:00 | 49.11542 | 11.84068 | 43037 ft | 513 kts | 294° |
| 2026-05-07 17:01 | 49.14575 | 11.74209 | 43037 ft | 513 kts | 294° |
| 2026-05-07 17:01 | 49.17599 | 11.64339 | 43037 ft | 513 kts | 294° |
| 2026-05-07 17:02 | 49.20614 | 11.54458 | 43036 ft | 512 kts | 294° |
| 2026-05-07 17:02 | 49.23615 | 11.44587 | 43035 ft | 512 kts | 294° |
| 2026-05-07 17:03 | 49.26610 | 11.34693 | 43035 ft | 513 kts | 294° |
| 2026-05-07 17:03 | 49.29599 | 11.24778 | 43037 ft | 513 kts | 293° |
| 2026-05-07 17:04 | 49.32581 | 11.14849 | 43037 ft | 513 kts | 293° |
| 2026-05-07 17:04 | 49.35552 | 11.04912 | 43038 ft | 513 kts | 293° |
| 2026-05-07 17:05 | 49.38517 | 10.94959 | 43038 ft | 513 kts | 294° |
| 2026-05-07 17:05 | 49.41680 | 10.85228 | 43054 ft | 513 kts | 295° |
| 2026-05-07 17:06 | 49.44837 | 10.75400 | 43054 ft | 513 kts | 295° |
| 2026-05-07 17:06 | 49.48027 | 10.65595 | 43055 ft | 513 kts | 295° |
| 2026-05-07 17:07 | 49.51179 | 10.55752 | 43055 ft | 513 kts | 295° |
| 2026-05-07 17:07 | 49.54342 | 10.45913 | 43055 ft | 513 kts | 295° |
| 2026-05-07 17:08 | 49.57489 | 10.36042 | 43056 ft | 513 kts | 295° |
| 2026-05-07 17:08 | 49.60631 | 10.26172 | 43059 ft | 513 kts | 295° |
| 2026-05-07 17:09 | 49.63763 | 10.16279 | 43052 ft | 513 kts | 295° |
| 2026-05-07 17:09 | 49.66886 | 10.06384 | 43051 ft | 513 kts | 295° |
| 2026-05-07 17:10 | 49.69999 | 9.96475 | 43052 ft | 513 kts | 295° |
| 2026-05-07 17:10 | 49.73107 | 9.86547 | 43052 ft | 513 kts | 295° |
| 2026-05-07 17:11 | 49.76206 | 9.76605 | 43053 ft | 513 kts | 294° |
| 2026-05-07 17:11 | 49.79293 | 9.66661 | 43053 ft | 513 kts | 294° |
| 2026-05-07 17:12 | 49.82373 | 9.56702 | 43053 ft | 513 kts | 294° |
| 2026-05-07 17:12 | 49.85446 | 9.46723 | 43053 ft | 513 kts | 294° |
| 2026-05-07 17:13 | 49.88507 | 9.36744 | 43053 ft | 513 kts | 294° |
| 2026-05-07 17:13 | 49.91561 | 9.26746 | 43053 ft | 513 kts | 294° |
| 2026-05-07 17:14 | 49.94606 | 9.16740 | 43054 ft | 513 kts | 294° |
| 2026-05-07 17:14 | 49.97623 | 9.06784 | 43053 ft | 512 kts | 294° |
| 2026-05-07 17:15 | 50.00645 | 8.96768 | 43053 ft | 512 kts | 294° |
| 2026-05-07 17:15 | 50.03664 | 8.86722 | 43052 ft | 513 kts | 294° |
| 2026-05-07 17:16 | 50.06537 | 8.76573 | 43058 ft | 513 kts | 289° |
| 2026-05-07 17:16 | 50.08939 | 8.66125 | 43049 ft | 512 kts | 289° |
| 2026-05-07 17:17 | 50.11430 | 8.55719 | 43051 ft | 512 kts | 289° |
| 2026-05-07 17:17 | 50.13859 | 8.45291 | 43052 ft | 512 kts | 289° |
| 2026-05-07 17:18 | 50.16298 | 8.34872 | 43052 ft | 512 kts | 289° |
| 2026-05-07 17:18 | 50.18716 | 8.24456 | 43051 ft | 512 kts | 289° |
| 2026-05-07 17:19 | 50.21130 | 8.14012 | 43053 ft | 511 kts | 289° |
| 2026-05-07 17:19 | 50.23535 | 8.03564 | 43050 ft | 511 kts | 289° |
| 2026-05-07 17:20 | 50.25926 | 7.93115 | 43048 ft | 511 kts | 289° |
| 2026-05-07 17:20 | 50.28309 | 7.82660 | 43047 ft | 510 kts | 288° |
| 2026-05-07 17:21 | 50.30679 | 7.72200 | 43046 ft | 510 kts | 288° |
| 2026-05-07 17:21 | 50.33040 | 7.61735 | 43046 ft | 510 kts | 288° |
| 2026-05-07 17:22 | 50.35392 | 7.51254 | 43046 ft | 510 kts | 288° |
| 2026-05-07 17:22 | 50.37720 | 7.40830 | 43046 ft | 510 kts | 288° |
| 2026-05-07 17:23 | 50.40052 | 7.30337 | 43046 ft | 510 kts | 288° |
| 2026-05-07 17:23 | 50.42376 | 7.19825 | 43047 ft | 510 kts | 288° |
| 2026-05-07 17:24 | 50.44693 | 7.09293 | 43050 ft | 511 kts | 288° |
| 2026-05-07 17:24 | 50.47001 | 6.98748 | 43050 ft | 511 kts | 288° |
| 2026-05-07 17:25 | 50.49296 | 6.88207 | 43049 ft | 510 kts | 288° |
| 2026-05-07 17:25 | 50.51453 | 6.77603 | 43051 ft | 510 kts | 285° |
| 2026-05-07 17:26 | 50.53433 | 6.66892 | 43048 ft | 511 kts | 285° |
| 2026-05-07 17:26 | 50.55389 | 6.56169 | 43049 ft | 510 kts | 285° |
| 2026-05-07 17:27 | 50.57336 | 6.45447 | 43048 ft | 509 kts | 285° |
| 2026-05-07 17:27 | 50.59273 | 6.34731 | 43049 ft | 509 kts | 285° |
| 2026-05-07 17:28 | 50.61196 | 6.24009 | 43048 ft | 509 kts | 285° |
| 2026-05-07 17:28 | 50.63115 | 6.13263 | 43048 ft | 509 kts | 285° |
| 2026-05-07 17:29 | 50.65019 | 6.02526 | 43048 ft | 509 kts | 284° |
| 2026-05-07 17:29 | 50.66916 | 5.91770 | 43048 ft | 509 kts | 284° |
| 2026-05-07 17:30 | 50.68801 | 5.81013 | 43048 ft | 509 kts | 284° |
| 2026-05-07 17:30 | 50.70675 | 5.70254 | 43048 ft | 509 kts | 284° |
| 2026-05-07 17:31 | 50.72540 | 5.59484 | 43049 ft | 509 kts | 284° |
| 2026-05-07 17:31 | 50.74395 | 5.48701 | 43049 ft | 509 kts | 284° |
| 2026-05-07 17:32 | 50.76242 | 5.37907 | 43049 ft | 509 kts | 284° |
| 2026-05-07 17:32 | 50.77768 | 5.28932 | 43049 ft | 509 kts | 284° |
| 2026-05-07 17:33 | 50.79903 | 5.16295 | 43050 ft | 509 kts | 284° |
| 2026-05-07 17:33 | 50.81717 | 5.05488 | 43076 ft | 510 kts | 284° |
| 2026-05-07 17:34 | 50.83530 | 4.94618 | 43073 ft | 510 kts | 284° |
| 2026-05-07 17:34 | 50.85327 | 4.83777 | 43074 ft | 509 kts | 284° |
| 2026-05-07 17:35 | 50.87113 | 4.72934 | 43074 ft | 509 kts | 283° |
| 2026-05-07 17:35 | 50.88891 | 4.62068 | 43075 ft | 510 kts | 283° |
| 2026-05-07 17:36 | 50.90900 | 4.51269 | 43108 ft | 512 kts | 294° |
| 2026-05-07 17:36 | 50.94565 | 4.41567 | 43084 ft | 514 kts | 304° |
| 2026-05-07 17:37 | 50.98663 | 4.32297 | 43088 ft | 512 kts | 300° |
| 2026-05-07 17:37 | 51.02155 | 4.22534 | 43084 ft | 513 kts | 299° |
| 2026-05-07 17:38 | 51.05922 | 4.12880 | 43080 ft | 514 kts | 301° |
| 2026-05-07 17:38 | 51.09584 | 4.03115 | 43084 ft | 514 kts | 299° |
| 2026-05-07 17:39 | 51.13268 | 3.93372 | 43082 ft | 514 kts | 300° |
| 2026-05-07 17:39 | 51.16945 | 3.83605 | 43084 ft | 514 kts | 300° |
| 2026-05-07 17:40 | 51.20008 | 3.75395 | 43085 ft | 514 kts | 300° |
| 2026-05-07 17:40 | 51.23651 | 3.65676 | 43087 ft | 514 kts | 300° |
| 2026-05-07 17:41 | 51.27293 | 3.55853 | 43086 ft | 514 kts | 300° |
| 2026-05-07 17:41 | 51.30937 | 3.46028 | 43086 ft | 514 kts | 300° |
| 2026-05-07 17:42 | 51.34564 | 3.36173 | 43084 ft | 513 kts | 297° |
| 2026-05-07 17:42 | 51.37299 | 3.25681 | 43085 ft | 511 kts | 287° |
| 2026-05-07 17:43 | 51.39592 | 3.14944 | 43092 ft | 507 kts | 291° |
| 2026-05-07 17:43 | 51.40912 | 3.09764 | 42985 ft | 500 kts | 291° |
| 2026-05-07 17:43 | 51.42193 | 3.04553 | 42322 ft | 502 kts | 289° |
| 2026-05-07 17:44 | 51.43379 | 2.99297 | 41758 ft | 501 kts | 289° |
| 2026-05-07 17:44 | 51.44568 | 2.94052 | 41211 ft | 500 kts | 290° |
| 2026-05-07 17:44 | 51.45798 | 2.88886 | 40659 ft | 499 kts | 290° |
| 2026-05-07 17:44 | 51.47045 | 2.83662 | 40109 ft | 498 kts | 290° |
| 2026-05-07 17:45 | 51.48249 | 2.78452 | 39557 ft | 496 kts | 289° |
| 2026-05-07 17:45 | 51.49434 | 2.73264 | 38991 ft | 495 kts | 290° |
| 2026-05-07 17:45 | 51.50635 | 2.68095 | 38449 ft | 493 kts | 290° |
| 2026-05-07 17:45 | 51.51833 | 2.62944 | 37880 ft | 492 kts | 289° |
| 2026-05-07 17:46 | 51.53019 | 2.57805 | 37312 ft | 489 kts | 289° |
| 2026-05-07 17:46 | 51.54191 | 2.52684 | 36744 ft | 488 kts | 289° |
| 2026-05-07 17:46 | 51.55358 | 2.47582 | 36164 ft | 486 kts | 289° |
| 2026-05-07 17:46 | 51.56525 | 2.42493 | 35587 ft | 484 kts | 289° |
| 2026-05-07 17:47 | 51.57682 | 2.37428 | 35008 ft | 482 kts | 289° |
| 2026-05-07 17:47 | 51.58831 | 2.32374 | 34407 ft | 481 kts | 289° |
| 2026-05-07 17:47 | 51.59976 | 2.27343 | 33816 ft | 478 kts | 289° |
| 2026-05-07 17:47 | 51.61117 | 2.22327 | 33209 ft | 477 kts | 289° |
| 2026-05-07 17:48 | 51.62257 | 2.17299 | 32587 ft | 478 kts | 289° |
| 2026-05-07 17:48 | 51.63400 | 2.12237 | 31956 ft | 487 kts | 289° |
| 2026-05-07 17:48 | 51.64569 | 2.07028 | 31285 ft | 503 kts | 289° |
| 2026-05-07 17:48 | 51.65770 | 2.01685 | 30582 ft | 511 kts | 289° |
| 2026-05-07 17:49 | 51.66978 | 1.96302 | 29861 ft | 509 kts | 289° |
| 2026-05-07 17:49 | 51.68170 | 1.90960 | 29138 ft | 505 kts | 289° |
| 2026-05-07 17:49 | 51.69350 | 1.85653 | 28410 ft | 501 kts | 289° |
| 2026-05-07 17:49 | 51.70504 | 1.80444 | 27702 ft | 500 kts | 289° |
| 2026-05-07 17:50 | 51.71696 | 1.75081 | 26982 ft | 504 kts | 289° |
| 2026-05-07 17:50 | 51.72859 | 1.69833 | 26260 ft | 503 kts | 289° |
| 2026-05-07 17:50 | 51.74025 | 1.64539 | 25546 ft | 498 kts | 289° |
| 2026-05-07 17:50 | 51.74979 | 1.59154 | 25141 ft | 493 kts | 279° |
| 2026-05-07 17:51 | 51.75222 | 1.53708 | 25097 ft | 493 kts | 268° |
| 2026-05-07 17:51 | 51.74870 | 1.48226 | 24649 ft | 489 kts | 260° |
| 2026-05-07 17:51 | 51.74194 | 1.42873 | 23908 ft | 485 kts | 257° |
| 2026-05-07 17:51 | 51.73433 | 1.37595 | 23071 ft | 480 kts | 257° |
| 2026-05-07 17:52 | 51.72757 | 1.32354 | 22215 ft | 475 kts | 261° |
| 2026-05-07 17:52 | 51.72378 | 1.27078 | 21393 ft | 471 kts | 265° |
| 2026-05-07 17:52 | 51.72180 | 1.21844 | 20573 ft | 466 kts | 266° |
| 2026-05-07 17:52 | 51.71946 | 1.16660 | 19740 ft | 460 kts | 264° |
| 2026-05-07 17:53 | 51.71548 | 1.11575 | 18923 ft | 455 kts | 262° |
| 2026-05-07 17:53 | 51.71136 | 1.06545 | 18109 ft | 450 kts | 263° |
| 2026-05-07 17:53 | 51.70813 | 1.01550 | 17299 ft | 445 kts | 264° |
| 2026-05-07 17:53 | 51.70515 | 0.96612 | 16533 ft | 441 kts | 264° |
| 2026-05-07 17:54 | 51.70173 | 0.91714 | 16105 ft | 439 kts | 263° |
| 2026-05-07 17:54 | 51.69811 | 0.86804 | 16026 ft | 443 kts | 263° |
| 2026-05-07 17:54 | 51.69466 | 0.81898 | 15681 ft | 438 kts | 263° |
| 2026-05-07 17:54 | 51.69134 | 0.77040 | 14978 ft | 434 kts | 263° |
| 2026-05-07 17:55 | 51.68799 | 0.72241 | 14178 ft | 429 kts | 263° |
| 2026-05-07 17:55 | 51.68457 | 0.67487 | 13380 ft | 425 kts | 263° |
| 2026-05-07 17:55 | 51.68117 | 0.62781 | 12590 ft | 421 kts | 263° |
| 2026-05-07 17:55 | 51.67784 | 0.58130 | 11810 ft | 416 kts | 263° |
| 2026-05-07 17:56 | 51.67455 | 0.53531 | 11255 ft | 411 kts | 263° |
| 2026-05-07 17:56 | 51.67122 | 0.48963 | 10756 ft | 410 kts | 263° |
| 2026-05-07 17:56 | 51.66786 | 0.44425 | 10285 ft | 407 kts | 263° |
| 2026-05-07 17:56 | 51.66455 | 0.39927 | 9979 ft | 399 kts | 263° |
| 2026-05-07 17:57 | 51.66139 | 0.35640 | 9160 ft | 375 kts | 263° |
| 2026-05-07 17:57 | 51.65939 | 0.32926 | 8668 ft | 362 kts | 263° |
| 2026-05-07 17:57 | 51.65555 | 0.27798 | 8025 ft | 324 kts | 263° |
| 2026-05-07 17:57 | 51.65300 | 0.24387 | 7980 ft | 291 kts | 263° |
| 2026-05-07 17:58 | 51.65067 | 0.21299 | 7988 ft | 274 kts | 263° |
| 2026-05-07 17:58 | 51.64832 | 0.18202 | 7993 ft | 280 kts | 263° |
| 2026-05-07 17:58 | 51.64606 | 0.15156 | 7999 ft | 278 kts | 265° |
| 2026-05-07 17:58 | 51.64496 | 0.12030 | 7988 ft | 280 kts | 264° |
| 2026-05-07 17:59 | 51.64279 | 0.08933 | 7984 ft | 278 kts | 263° |
| 2026-05-07 17:59 | 51.64045 | 0.05842 | 7992 ft | 279 kts | 262° |
| 2026-05-07 17:59 | 51.63769 | 0.02762 | 7984 ft | 279 kts | 261° |
| 2026-05-07 17:59 | 51.63477 | -0.00332 | 7983 ft | 279 kts | 261° |
| 2026-05-07 18:00 | 51.63181 | -0.03421 | 8014 ft | 283 kts | 261° |
| 2026-05-07 18:00 | 51.62880 | -0.06537 | 8001 ft | 277 kts | 261° |
| 2026-05-07 18:00 | 51.62579 | -0.09608 | 8006 ft | 280 kts | 261° |
| 2026-05-07 18:00 | 51.62278 | -0.12671 | 8003 ft | 277 kts | 261° |
| 2026-05-07 18:01 | 51.61974 | -0.15757 | 8007 ft | 277 kts | 261° |
| 2026-05-07 18:01 | 51.61672 | -0.18819 | 7999 ft | 279 kts | 261° |
| 2026-05-07 18:01 | 51.61368 | -0.21896 | 7769 ft | 278 kts | 261° |
| 2026-05-07 18:01 | 51.61064 | -0.24961 | 7503 ft | 277 kts | 261° |
| 2026-05-07 18:02 | 51.60457 | -0.31057 | 7033 ft | 275 kts | 261° |
| 2026-05-07 18:02 | 51.60161 | -0.34049 | 6981 ft | 266 kts | 261° |
| 2026-05-07 18:02 | 51.59866 | -0.37024 | 6986 ft | 275 kts | 261° |
| 2026-05-07 18:03 | 51.59569 | -0.40035 | 6994 ft | 272 kts | 261° |
| 2026-05-07 18:03 | 51.59268 | -0.43066 | 6995 ft | 273 kts | 261° |
| 2026-05-07 18:03 | 51.58971 | -0.46081 | 6996 ft | 275 kts | 261° |
| 2026-05-07 18:03 | 51.58670 | -0.49103 | 6991 ft | 273 kts | 261° |
| 2026-05-07 18:04 | 51.58371 | -0.52125 | 6993 ft | 274 kts | 261° |
| 2026-05-07 18:04 | 51.58069 | -0.55145 | 6993 ft | 274 kts | 261° |
| 2026-05-07 18:04 | 51.57767 | -0.58171 | 6991 ft | 274 kts | 261° |
| 2026-05-07 18:04 | 51.57468 | -0.61195 | 6990 ft | 274 kts | 260° |
| 2026-05-07 18:05 | 51.57168 | -0.64219 | 6814 ft | 273 kts | 261° |
| 2026-05-07 18:05 | 51.56876 | -0.67194 | 6556 ft | 273 kts | 261° |
| 2026-05-07 18:05 | 51.56575 | -0.70238 | 6314 ft | 272 kts | 261° |
| 2026-05-07 18:05 | 51.56279 | -0.73242 | 6074 ft | 272 kts | 261° |
| 2026-05-07 18:06 | 51.55988 | -0.76195 | 5861 ft | 271 kts | 261° |
| 2026-05-07 18:06 | 51.55695 | -0.79176 | 5658 ft | 269 kts | 261° |
| 2026-05-07 18:06 | 51.55413 | -0.82073 | 5357 ft | 256 kts | 261° |
| 2026-05-07 18:06 | 51.55078 | -0.84780 | 5093 ft | 240 kts | 247° |
| 2026-05-07 18:07 | 51.54210 | -0.86929 | 4955 ft | 220 kts | 221° |
| 2026-05-07 18:07 | 51.52972 | -0.88080 | 4974 ft | 195 kts | 193° |
| 2026-05-07 18:07 | 51.51656 | -0.88108 | 4968 ft | 191 kts | 163° |
| 2026-05-07 18:07 | 51.50498 | -0.87097 | 4730 ft | 194 kts | 135° |
| 2026-05-07 18:08 | 51.49687 | -0.85370 | 4524 ft | 194 kts | 123° |
| 2026-05-07 18:08 | 51.49000 | -0.83531 | 4322 ft | 191 kts | 119° |
| 2026-05-07 18:08 | 51.48478 | -0.81573 | 4091 ft | 192 kts | 102° |
| 2026-05-07 18:08 | 51.48232 | -0.79475 | 3874 ft | 191 kts | 101° |
| 2026-05-07 18:09 | 51.47904 | -0.77416 | 3574 ft | 190 kts | 109° |
| 2026-05-07 18:09 | 51.47700 | -0.75341 | 3343 ft | 188 kts | 92° |
| 2026-05-07 18:09 | 51.47666 | -0.73260 | 3089 ft | 186 kts | 91° |
| 2026-05-07 18:09 | 51.47669 | -0.71201 | 2852 ft | 183 kts | 91° |
| 2026-05-07 18:10 | 51.47675 | -0.69169 | 2614 ft | 184 kts | 90° |
| 2026-05-07 18:10 | 51.47682 | -0.67114 | 2361 ft | 183 kts | 91° |
| 2026-05-07 18:10 | 51.47690 | -0.65073 | 2118 ft | 184 kts | 90° |
| 2026-05-07 18:10 | 51.47695 | -0.63035 | 1869 ft | 182 kts | 91° |
| 2026-05-07 18:11 | 51.47704 | -0.61022 | 1641 ft | 181 kts | 90° |
| 2026-05-07 18:11 | 51.47708 | -0.59687 | 1472 ft | 181 kts | 91° |
| 2026-05-07 18:11 | 51.47719 | -0.57038 | 1165 ft | 169 kts | 91° |
| 2026-05-07 18:11 | 51.47726 | -0.55245 | 937 ft | 153 kts | 91° |
| 2026-05-07 18:12 | 51.47733 | -0.53608 | 722 ft | 141 kts | 91° |
| 2026-05-07 18:12 | 51.47739 | -0.52066 | 485 ft | 137 kts | 91° |
| 2026-05-07 18:12 | 51.47733 | -0.50566 | 332 ft | 133 kts | 92° |
| 2026-05-07 18:12 | 51.47742 | -0.49052 | 190 ft | 137 kts | 89° |
| 2026-05-07 18:13 | 51.47748 | -0.47622 | 95 ft | 104 kts | 87° |
| 2026-05-07 18:13 | 51.47758 | -0.46876 | 100 ft | 31 kts | 88° |
| 2026-05-07 18:13 | 51.47759 | -0.46746 | 98 ft | 3 kts | 90° |
| 2026-05-07 18:13 | 51.47758 | -0.46627 | 100 ft | 16 kts | 90° |
| 2026-05-07 18:14 | 51.47757 | -0.46435 | 100 ft | 20 kts | 91° |
| 2026-05-07 18:14 | 51.47733 | -0.46236 | 97 ft | 16 kts | 119° |
| 2026-05-07 18:14 | 51.47669 | -0.46107 | 96 ft | 15 kts | 133° |
| 2026-05-07 18:14 | 51.47642 | -0.46061 | 96 ft | 0 kts | 133° |
| 2026-05-07 18:15 | 51.47641 | -0.46059 | 95 ft | 2 kts | 133° |
| 2026-05-07 18:16 | 51.47617 | -0.46011 | 96 ft | 7 kts | 122° |
| 2026-05-07 18:16 | 51.47603 | -0.45958 | 96 ft | 3 kts | 107° |
| 2026-05-07 18:16 | 51.47600 | -0.45931 | 96 ft | 2 kts | 98° |
| 2026-05-07 18:16 | 51.47594 | -0.45855 | 97 ft | 13 kts | 96° |
| 2026-05-07 18:17 | 51.47556 | -0.45752 | 98 ft | 13 kts | 139° |
| 2026-05-07 18:17 | 51.47506 | -0.45645 | 96 ft | 9 kts | 101° |
| 2026-05-07 18:17 | 51.47508 | -0.45576 | 96 ft | 5 kts | 89° |
| 2026-05-07 18:17 | 51.47508 | -0.45470 | 99 ft | 15 kts | 90° |
| 2026-05-07 18:18 | 51.47506 | -0.45250 | 96 ft | 21 kts | 89° |
| 2026-05-07 18:18 | 51.47510 | -0.45025 | 97 ft | 20 kts | 89° |
| 2026-05-07 18:18 | 51.47512 | -0.44811 | 96 ft | 19 kts | 90° |
| 2026-05-07 18:18 | 51.47505 | -0.44605 | 97 ft | 18 kts | 95° |
| 2026-05-07 18:19 | 51.47504 | -0.44422 | 97 ft | 15 kts | 90° |
| 2026-05-07 18:19 | 51.47504 | -0.44254 | 96 ft | 13 kts | 90° |
| 2026-05-07 18:19 | 51.47501 | -0.44138 | 97 ft | 7 kts | 100° |
| 2026-05-07 18:19 | 51.47499 | -0.44127 | 97 ft | 0 kts | 108° |
| 2026-05-07 18:23 | 51.47498 | -0.44125 | 96 ft | 1 kts | 108° |
| 2026-05-07 18:24 | 51.47483 | -0.44082 | 98 ft | 5 kts | 132° |
| 2026-05-07 18:24 | 51.47447 | -0.44062 | 98 ft | 7 kts | 174° |
| 2026-05-07 18:24 | 51.47372 | -0.44055 | 97 ft | 14 kts | 179° |
| 2026-05-07 18:24 | 51.47261 | -0.44067 | 96 ft | 17 kts | 182° |
| 2026-05-07 18:25 | 51.47151 | -0.44074 | 96 ft | 15 kts | 182° |
| 2026-05-07 18:25 | 51.47073 | -0.44063 | 96 ft | 7 kts | 176° |
| 2026-05-07 18:25 | 51.47041 | -0.44075 | 97 ft | 2 kts | 205° |
| 2026-05-07 18:25 | 51.47033 | -0.44085 | 96 ft | 2 kts | 219° |
| 2026-05-07 18:26 | 51.47024 | -0.44114 | 97 ft | 4 kts | 251° |
| 2026-05-07 18:26 | 51.47020 | -0.44158 | 99 ft | 5 kts | 267° |
| 2026-05-07 18:26 | 51.47019 | -0.44210 | 96 ft | 0 kts | 268° |